<?xml version="1.0" encoding="UTF-8" standalone="no" ?>
<gpx xmlns="http://www.topografix.com/GPX/1/1" xmlns:xsi="http://www.w3.org/2001/XMLSchema-instance" xsi:schemaLocation="http://www.topografix.com/GPX/1/1 http://www.topografix.com/GPX/1/1/gpx.xsd" version="1.1" creator="VisuGPX - https://www.visugpx.com">
  <metadata>
    <name>VTT chemin du paradis</name>
    <desc><![CDATA[Ride du soir : Descente du chemin paradis, 550m d- de technique  & cassant]]></desc>
  </metadata>
  <trk>
    <name><![CDATA[gourdon paradis]]></name>
    <trkseg>
      <trkpt lat="43.7013" lon="6.995">
        <ele>225</ele>
        <time>2012-04-17T15:17:32Z</time>
      </trkpt>
      <trkpt lat="43.70109" lon="6.99501">
        <ele>226</ele>
        <time>2012-04-17T15:17:39Z</time>
      </trkpt>
      <trkpt lat="43.70094" lon="6.99498">
        <ele>232</ele>
        <time>2012-04-17T15:17:44Z</time>
      </trkpt>
      <trkpt lat="43.70061" lon="6.9949">
        <ele>231</ele>
        <time>2012-04-17T15:17:51Z</time>
      </trkpt>
      <trkpt lat="43.70045" lon="6.99473">
        <ele>231</ele>
        <time>2012-04-17T15:17:56Z</time>
      </trkpt>
      <trkpt lat="43.70045" lon="6.9947">
        <ele>231</ele>
        <time>2012-04-17T15:17:57Z</time>
      </trkpt>
      <trkpt lat="43.70047" lon="6.99461">
        <ele>232</ele>
        <time>2012-04-17T15:18:01Z</time>
      </trkpt>
      <trkpt lat="43.70052" lon="6.9945">
        <ele>233</ele>
        <time>2012-04-17T15:18:08Z</time>
      </trkpt>
      <trkpt lat="43.70055" lon="6.99433">
        <ele>235</ele>
        <time>2012-04-17T15:18:16Z</time>
      </trkpt>
      <trkpt lat="43.70057" lon="6.99417">
        <ele>236</ele>
        <time>2012-04-17T15:18:24Z</time>
      </trkpt>
      <trkpt lat="43.70057" lon="6.99398">
        <ele>244</ele>
        <time>2012-04-17T15:18:34Z</time>
      </trkpt>
      <trkpt lat="43.70056" lon="6.99378">
        <ele>245</ele>
        <time>2012-04-17T15:18:45Z</time>
      </trkpt>
      <trkpt lat="43.70056" lon="6.99358">
        <ele>247</ele>
        <time>2012-04-17T15:18:55Z</time>
      </trkpt>
      <trkpt lat="43.70058" lon="6.99342">
        <ele>248</ele>
        <time>2012-04-17T15:19:03Z</time>
      </trkpt>
      <trkpt lat="43.7006" lon="6.99323">
        <ele>256</ele>
        <time>2012-04-17T15:19:13Z</time>
      </trkpt>
      <trkpt lat="43.7006" lon="6.99308">
        <ele>257</ele>
        <time>2012-04-17T15:19:21Z</time>
      </trkpt>
      <trkpt lat="43.7006" lon="6.99292">
        <ele>258</ele>
        <time>2012-04-17T15:19:30Z</time>
      </trkpt>
      <trkpt lat="43.70057" lon="6.99276">
        <ele>260</ele>
        <time>2012-04-17T15:19:39Z</time>
      </trkpt>
      <trkpt lat="43.70057" lon="6.99273">
        <ele>260</ele>
        <time>2012-04-17T15:19:41Z</time>
      </trkpt>
      <trkpt lat="43.70057" lon="6.99266">
        <ele>260</ele>
        <time>2012-04-17T15:19:45Z</time>
      </trkpt>
      <trkpt lat="43.70056" lon="6.99257">
        <ele>261</ele>
        <time>2012-04-17T15:19:50Z</time>
      </trkpt>
      <trkpt lat="43.70055" lon="6.99247">
        <ele>269</ele>
        <time>2012-04-17T15:19:56Z</time>
      </trkpt>
      <trkpt lat="43.70056" lon="6.99233">
        <ele>270</ele>
        <time>2012-04-17T15:20:05Z</time>
      </trkpt>
      <trkpt lat="43.70056" lon="6.99231">
        <ele>270</ele>
        <time>2012-04-17T15:20:11Z</time>
      </trkpt>
      <trkpt lat="43.70051" lon="6.99213">
        <ele>271</ele>
        <time>2012-04-17T15:20:21Z</time>
      </trkpt>
      <trkpt lat="43.70047" lon="6.99205">
        <ele>272</ele>
        <time>2012-04-17T15:20:26Z</time>
      </trkpt>
      <trkpt lat="43.70043" lon="6.9919">
        <ele>273</ele>
        <time>2012-04-17T15:20:35Z</time>
      </trkpt>
      <trkpt lat="43.70038" lon="6.99174">
        <ele>273</ele>
        <time>2012-04-17T15:20:45Z</time>
      </trkpt>
      <trkpt lat="43.70037" lon="6.99168">
        <ele>274</ele>
        <time>2012-04-17T15:20:49Z</time>
      </trkpt>
      <trkpt lat="43.7004" lon="6.99162">
        <ele>283</ele>
        <time>2012-04-17T15:20:53Z</time>
      </trkpt>
      <trkpt lat="43.70052" lon="6.99149">
        <ele>284</ele>
        <time>2012-04-17T15:21:04Z</time>
      </trkpt>
      <trkpt lat="43.70063" lon="6.99137">
        <ele>286</ele>
        <time>2012-04-17T15:21:14Z</time>
      </trkpt>
      <trkpt lat="43.70063" lon="6.99126">
        <ele>287</ele>
        <time>2012-04-17T15:21:20Z</time>
      </trkpt>
      <trkpt lat="43.70056" lon="6.9911">
        <ele>288</ele>
        <time>2012-04-17T15:21:29Z</time>
      </trkpt>
      <trkpt lat="43.70049" lon="6.99091">
        <ele>289</ele>
        <time>2012-04-17T15:21:37Z</time>
      </trkpt>
      <trkpt lat="43.70043" lon="6.99073">
        <ele>297</ele>
        <time>2012-04-17T15:21:44Z</time>
      </trkpt>
      <trkpt lat="43.70038" lon="6.99052">
        <ele>297</ele>
        <time>2012-04-17T15:21:53Z</time>
      </trkpt>
      <trkpt lat="43.70033" lon="6.99037">
        <ele>298</ele>
        <time>2012-04-17T15:22:01Z</time>
      </trkpt>
      <trkpt lat="43.70032" lon="6.99025">
        <ele>299</ele>
        <time>2012-04-17T15:22:07Z</time>
      </trkpt>
      <trkpt lat="43.70033" lon="6.99009">
        <ele>299</ele>
        <time>2012-04-17T15:22:14Z</time>
      </trkpt>
      <trkpt lat="43.70028" lon="6.98993">
        <ele>306</ele>
        <time>2012-04-17T15:22:21Z</time>
      </trkpt>
      <trkpt lat="43.70013" lon="6.98968">
        <ele>306</ele>
        <time>2012-04-17T15:22:30Z</time>
      </trkpt>
      <trkpt lat="43.69993" lon="6.98947">
        <ele>295</ele>
        <time>2012-04-17T15:22:40Z</time>
      </trkpt>
      <trkpt lat="43.69996" lon="6.9894">
        <ele>297</ele>
        <time>2012-04-17T15:22:44Z</time>
      </trkpt>
      <trkpt lat="43.7" lon="6.98944">
        <ele>307</ele>
        <time>2012-04-17T15:22:47Z</time>
      </trkpt>
      <trkpt lat="43.70015" lon="6.98952">
        <ele>307</ele>
        <time>2012-04-17T15:22:55Z</time>
      </trkpt>
      <trkpt lat="43.70024" lon="6.98955">
        <ele>308</ele>
        <time>2012-04-17T15:23:00Z</time>
      </trkpt>
      <trkpt lat="43.70036" lon="6.98957">
        <ele>310</ele>
        <time>2012-04-17T15:23:07Z</time>
      </trkpt>
      <trkpt lat="43.70045" lon="6.98959">
        <ele>311</ele>
        <time>2012-04-17T15:23:13Z</time>
      </trkpt>
      <trkpt lat="43.70051" lon="6.98959">
        <ele>312</ele>
        <time>2012-04-17T15:23:19Z</time>
      </trkpt>
      <trkpt lat="43.70054" lon="6.98958">
        <ele>312</ele>
        <time>2012-04-17T15:23:22Z</time>
      </trkpt>
      <trkpt lat="43.70063" lon="6.98958">
        <ele>313</ele>
        <time>2012-04-17T15:23:29Z</time>
      </trkpt>
      <trkpt lat="43.70069" lon="6.98957">
        <ele>314</ele>
        <time>2012-04-17T15:23:35Z</time>
      </trkpt>
      <trkpt lat="43.70072" lon="6.9895">
        <ele>315</ele>
        <time>2012-04-17T15:23:40Z</time>
      </trkpt>
      <trkpt lat="43.70078" lon="6.98938">
        <ele>318</ele>
        <time>2012-04-17T15:23:47Z</time>
      </trkpt>
      <trkpt lat="43.7008" lon="6.98933">
        <ele>319</ele>
        <time>2012-04-17T15:23:53Z</time>
      </trkpt>
      <trkpt lat="43.70079" lon="6.98931">
        <ele>320</ele>
        <time>2012-04-17T15:23:58Z</time>
      </trkpt>
      <trkpt lat="43.7008" lon="6.98919">
        <ele>325</ele>
        <time>2012-04-17T15:24:04Z</time>
      </trkpt>
      <trkpt lat="43.70081" lon="6.98904">
        <ele>324</ele>
        <time>2012-04-17T15:24:11Z</time>
      </trkpt>
      <trkpt lat="43.7008" lon="6.98899">
        <ele>324</ele>
        <time>2012-04-17T15:24:14Z</time>
      </trkpt>
      <trkpt lat="43.70069" lon="6.98878">
        <ele>323</ele>
        <time>2012-04-17T15:24:22Z</time>
      </trkpt>
      <trkpt lat="43.70065" lon="6.98867">
        <ele>323</ele>
        <time>2012-04-17T15:24:26Z</time>
      </trkpt>
      <trkpt lat="43.70061" lon="6.98853">
        <ele>324</ele>
        <time>2012-04-17T15:24:30Z</time>
      </trkpt>
      <trkpt lat="43.70057" lon="6.98836">
        <ele>324</ele>
        <time>2012-04-17T15:24:35Z</time>
      </trkpt>
      <trkpt lat="43.70058" lon="6.98821">
        <ele>330</ele>
        <time>2012-04-17T15:24:41Z</time>
      </trkpt>
      <trkpt lat="43.70058" lon="6.98817">
        <ele>330</ele>
        <time>2012-04-17T15:24:43Z</time>
      </trkpt>
      <trkpt lat="43.70057" lon="6.98806">
        <ele>330</ele>
        <time>2012-04-17T15:24:49Z</time>
      </trkpt>
      <trkpt lat="43.70055" lon="6.98795">
        <ele>330</ele>
        <time>2012-04-17T15:24:56Z</time>
      </trkpt>
      <trkpt lat="43.70051" lon="6.98785">
        <ele>330</ele>
        <time>2012-04-17T15:25:02Z</time>
      </trkpt>
      <trkpt lat="43.70047" lon="6.98775">
        <ele>330</ele>
        <time>2012-04-17T15:25:09Z</time>
      </trkpt>
      <trkpt lat="43.70044" lon="6.98767">
        <ele>330</ele>
        <time>2012-04-17T15:25:14Z</time>
      </trkpt>
      <trkpt lat="43.70036" lon="6.98751">
        <ele>330</ele>
        <time>2012-04-17T15:25:19Z</time>
      </trkpt>
      <trkpt lat="43.70029" lon="6.98739">
        <ele>334</ele>
        <time>2012-04-17T15:25:23Z</time>
      </trkpt>
      <trkpt lat="43.70015" lon="6.98712">
        <ele>335</ele>
        <time>2012-04-17T15:25:30Z</time>
      </trkpt>
      <trkpt lat="43.69998" lon="6.98675">
        <ele>330</ele>
        <time>2012-04-17T15:25:37Z</time>
      </trkpt>
      <trkpt lat="43.69982" lon="6.98642">
        <ele>332</ele>
        <time>2012-04-17T15:25:44Z</time>
      </trkpt>
      <trkpt lat="43.69978" lon="6.9862">
        <ele>333</ele>
        <time>2012-04-17T15:25:51Z</time>
      </trkpt>
      <trkpt lat="43.69976" lon="6.98602">
        <ele>334</ele>
        <time>2012-04-17T15:25:59Z</time>
      </trkpt>
      <trkpt lat="43.69972" lon="6.98588">
        <ele>335</ele>
        <time>2012-04-17T15:26:07Z</time>
      </trkpt>
      <trkpt lat="43.69964" lon="6.98569">
        <ele>342</ele>
        <time>2012-04-17T15:26:18Z</time>
      </trkpt>
      <trkpt lat="43.69958" lon="6.98557">
        <ele>342</ele>
        <time>2012-04-17T15:26:25Z</time>
      </trkpt>
      <trkpt lat="43.69949" lon="6.98542">
        <ele>342</ele>
        <time>2012-04-17T15:26:33Z</time>
      </trkpt>
      <trkpt lat="43.69937" lon="6.98523">
        <ele>342</ele>
        <time>2012-04-17T15:26:42Z</time>
      </trkpt>
      <trkpt lat="43.69924" lon="6.98502">
        <ele>341</ele>
        <time>2012-04-17T15:26:51Z</time>
      </trkpt>
      <trkpt lat="43.69914" lon="6.98487">
        <ele>339</ele>
        <time>2012-04-17T15:26:57Z</time>
      </trkpt>
      <trkpt lat="43.69894" lon="6.98454">
        <ele>338</ele>
        <time>2012-04-17T15:27:08Z</time>
      </trkpt>
      <trkpt lat="43.6988" lon="6.9843">
        <ele>338</ele>
        <time>2012-04-17T15:27:16Z</time>
      </trkpt>
      <trkpt lat="43.69882" lon="6.98417">
        <ele>343</ele>
        <time>2012-04-17T15:27:20Z</time>
      </trkpt>
      <trkpt lat="43.69895" lon="6.98394">
        <ele>345</ele>
        <time>2012-04-17T15:27:28Z</time>
      </trkpt>
      <trkpt lat="43.69906" lon="6.98375">
        <ele>346</ele>
        <time>2012-04-17T15:27:35Z</time>
      </trkpt>
      <trkpt lat="43.69912" lon="6.98358">
        <ele>348</ele>
        <time>2012-04-17T15:27:41Z</time>
      </trkpt>
      <trkpt lat="43.69911" lon="6.98344">
        <ele>351</ele>
        <time>2012-04-17T15:27:46Z</time>
      </trkpt>
      <trkpt lat="43.69911" lon="6.98342">
        <ele>351</ele>
        <time>2012-04-17T15:27:49Z</time>
      </trkpt>
      <trkpt lat="43.69907" lon="6.98326">
        <ele>352</ele>
        <time>2012-04-17T15:27:56Z</time>
      </trkpt>
      <trkpt lat="43.69907" lon="6.98308">
        <ele>349</ele>
        <time>2012-04-17T15:28:04Z</time>
      </trkpt>
      <trkpt lat="43.69907" lon="6.98298">
        <ele>348</ele>
        <time>2012-04-17T15:28:09Z</time>
      </trkpt>
      <trkpt lat="43.69909" lon="6.98295">
        <ele>348</ele>
        <time>2012-04-17T15:28:14Z</time>
      </trkpt>
      <trkpt lat="43.69909" lon="6.98294">
        <ele>348</ele>
        <time>2012-04-17T15:28:15Z</time>
      </trkpt>
      <trkpt lat="43.69909" lon="6.98286">
        <ele>348</ele>
        <time>2012-04-17T15:28:19Z</time>
      </trkpt>
      <trkpt lat="43.6991" lon="6.98282">
        <ele>349</ele>
        <time>2012-04-17T15:28:21Z</time>
      </trkpt>
      <trkpt lat="43.69914" lon="6.98268">
        <ele>351</ele>
        <time>2012-04-17T15:28:28Z</time>
      </trkpt>
      <trkpt lat="43.69922" lon="6.98254">
        <ele>361</ele>
        <time>2012-04-17T15:28:37Z</time>
      </trkpt>
      <trkpt lat="43.69927" lon="6.98242">
        <ele>364</ele>
        <time>2012-04-17T15:28:44Z</time>
      </trkpt>
      <trkpt lat="43.69934" lon="6.98226">
        <ele>367</ele>
        <time>2012-04-17T15:28:53Z</time>
      </trkpt>
      <trkpt lat="43.69944" lon="6.98214">
        <ele>369</ele>
        <time>2012-04-17T15:29:02Z</time>
      </trkpt>
      <trkpt lat="43.69946" lon="6.98215">
        <ele>369</ele>
        <time>2012-04-17T15:29:08Z</time>
      </trkpt>
      <trkpt lat="43.69948" lon="6.98211">
        <ele>370</ele>
        <time>2012-04-17T15:29:12Z</time>
      </trkpt>
      <trkpt lat="43.69951" lon="6.98211">
        <ele>370</ele>
        <time>2012-04-17T15:29:18Z</time>
      </trkpt>
      <trkpt lat="43.69954" lon="6.98211">
        <ele>371</ele>
        <time>2012-04-17T15:29:31Z</time>
      </trkpt>
      <trkpt lat="43.69957" lon="6.98209">
        <ele>372</ele>
        <time>2012-04-17T15:29:37Z</time>
      </trkpt>
      <trkpt lat="43.69966" lon="6.98201">
        <ele>373</ele>
        <time>2012-04-17T15:29:44Z</time>
      </trkpt>
      <trkpt lat="43.69972" lon="6.98185">
        <ele>375</ele>
        <time>2012-04-17T15:29:53Z</time>
      </trkpt>
      <trkpt lat="43.69973" lon="6.98182">
        <ele>375</ele>
        <time>2012-04-17T15:29:58Z</time>
      </trkpt>
      <trkpt lat="43.69974" lon="6.98182">
        <ele>375</ele>
        <time>2012-04-17T15:30:01Z</time>
      </trkpt>
      <trkpt lat="43.69978" lon="6.98178">
        <ele>377</ele>
        <time>2012-04-17T15:30:05Z</time>
      </trkpt>
      <trkpt lat="43.69987" lon="6.98162">
        <ele>379</ele>
        <time>2012-04-17T15:30:15Z</time>
      </trkpt>
      <trkpt lat="43.69988" lon="6.9816">
        <ele>379</ele>
        <time>2012-04-17T15:30:21Z</time>
      </trkpt>
      <trkpt lat="43.6999" lon="6.98153">
        <ele>378</ele>
        <time>2012-04-17T15:30:29Z</time>
      </trkpt>
      <trkpt lat="43.69991" lon="6.98143">
        <ele>375</ele>
        <time>2012-04-17T15:30:35Z</time>
      </trkpt>
      <trkpt lat="43.69993" lon="6.98138">
        <ele>375</ele>
        <time>2012-04-17T15:30:41Z</time>
      </trkpt>
      <trkpt lat="43.69998" lon="6.98135">
        <ele>375</ele>
        <time>2012-04-17T15:30:46Z</time>
      </trkpt>
      <trkpt lat="43.70005" lon="6.98127">
        <ele>400</ele>
        <time>2012-04-17T15:30:52Z</time>
      </trkpt>
      <trkpt lat="43.70014" lon="6.98121">
        <ele>401</ele>
        <time>2012-04-17T15:30:58Z</time>
      </trkpt>
      <trkpt lat="43.70022" lon="6.98109">
        <ele>402</ele>
        <time>2012-04-17T15:31:04Z</time>
      </trkpt>
      <trkpt lat="43.70025" lon="6.98094">
        <ele>401</ele>
        <time>2012-04-17T15:31:09Z</time>
      </trkpt>
      <trkpt lat="43.70025" lon="6.98088">
        <ele>400</ele>
        <time>2012-04-17T15:31:11Z</time>
      </trkpt>
      <trkpt lat="43.70026" lon="6.98069">
        <ele>401</ele>
        <time>2012-04-17T15:31:18Z</time>
      </trkpt>
      <trkpt lat="43.70025" lon="6.98059">
        <ele>402</ele>
        <time>2012-04-17T15:31:22Z</time>
      </trkpt>
      <trkpt lat="43.70025" lon="6.98043">
        <ele>402</ele>
        <time>2012-04-17T15:31:28Z</time>
      </trkpt>
      <trkpt lat="43.70022" lon="6.9802">
        <ele>401</ele>
        <time>2012-04-17T15:31:35Z</time>
      </trkpt>
      <trkpt lat="43.70021" lon="6.97998">
        <ele>401</ele>
        <time>2012-04-17T15:31:43Z</time>
      </trkpt>
      <trkpt lat="43.70022" lon="6.97983">
        <ele>403</ele>
        <time>2012-04-17T15:31:50Z</time>
      </trkpt>
      <trkpt lat="43.70021" lon="6.97967">
        <ele>405</ele>
        <time>2012-04-17T15:31:57Z</time>
      </trkpt>
      <trkpt lat="43.70022" lon="6.9795">
        <ele>406</ele>
        <time>2012-04-17T15:32:04Z</time>
      </trkpt>
      <trkpt lat="43.70022" lon="6.97933">
        <ele>406</ele>
        <time>2012-04-17T15:32:11Z</time>
      </trkpt>
      <trkpt lat="43.70021" lon="6.97918">
        <ele>405</ele>
        <time>2012-04-17T15:32:18Z</time>
      </trkpt>
      <trkpt lat="43.70022" lon="6.97905">
        <ele>410</ele>
        <time>2012-04-17T15:32:24Z</time>
      </trkpt>
      <trkpt lat="43.70022" lon="6.97892">
        <ele>412</ele>
        <time>2012-04-17T15:32:30Z</time>
      </trkpt>
      <trkpt lat="43.70023" lon="6.97876">
        <ele>414</ele>
        <time>2012-04-17T15:32:37Z</time>
      </trkpt>
      <trkpt lat="43.70023" lon="6.97859">
        <ele>414</ele>
        <time>2012-04-17T15:32:45Z</time>
      </trkpt>
      <trkpt lat="43.70024" lon="6.97856">
        <ele>414</ele>
        <time>2012-04-17T15:32:50Z</time>
      </trkpt>
      <trkpt lat="43.70027" lon="6.97852">
        <ele>415</ele>
        <time>2012-04-17T15:33:16Z</time>
      </trkpt>
      <trkpt lat="43.70027" lon="6.97838">
        <ele>414</ele>
        <time>2012-04-17T15:33:24Z</time>
      </trkpt>
      <trkpt lat="43.70027" lon="6.97826">
        <ele>418</ele>
        <time>2012-04-17T15:33:30Z</time>
      </trkpt>
      <trkpt lat="43.70027" lon="6.97813">
        <ele>420</ele>
        <time>2012-04-17T15:33:37Z</time>
      </trkpt>
      <trkpt lat="43.70028" lon="6.97808">
        <ele>420</ele>
        <time>2012-04-17T15:33:40Z</time>
      </trkpt>
      <trkpt lat="43.70027" lon="6.97792">
        <ele>421</ele>
        <time>2012-04-17T15:33:48Z</time>
      </trkpt>
      <trkpt lat="43.70035" lon="6.97783">
        <ele>423</ele>
        <time>2012-04-17T15:33:55Z</time>
      </trkpt>
      <trkpt lat="43.70041" lon="6.97784">
        <ele>424</ele>
        <time>2012-04-17T15:34:00Z</time>
      </trkpt>
      <trkpt lat="43.70042" lon="6.97781">
        <ele>425</ele>
        <time>2012-04-17T15:34:02Z</time>
      </trkpt>
      <trkpt lat="43.70043" lon="6.97765">
        <ele>426</ele>
        <time>2012-04-17T15:34:10Z</time>
      </trkpt>
      <trkpt lat="43.70044" lon="6.97759">
        <ele>426</ele>
        <time>2012-04-17T15:34:13Z</time>
      </trkpt>
      <trkpt lat="43.70041" lon="6.9774">
        <ele>431</ele>
        <time>2012-04-17T15:34:22Z</time>
      </trkpt>
      <trkpt lat="43.70037" lon="6.97727">
        <ele>430</ele>
        <time>2012-04-17T15:34:29Z</time>
      </trkpt>
      <trkpt lat="43.70035" lon="6.9771">
        <ele>431</ele>
        <time>2012-04-17T15:34:37Z</time>
      </trkpt>
      <trkpt lat="43.70035" lon="6.97692">
        <ele>432</ele>
        <time>2012-04-17T15:34:46Z</time>
      </trkpt>
      <trkpt lat="43.70032" lon="6.97677">
        <ele>431</ele>
        <time>2012-04-17T15:34:54Z</time>
      </trkpt>
      <trkpt lat="43.70029" lon="6.97662">
        <ele>436</ele>
        <time>2012-04-17T15:35:02Z</time>
      </trkpt>
      <trkpt lat="43.70029" lon="6.97651">
        <ele>437</ele>
        <time>2012-04-17T15:35:08Z</time>
      </trkpt>
      <trkpt lat="43.70032" lon="6.97646">
        <ele>439</ele>
        <time>2012-04-17T15:35:15Z</time>
      </trkpt>
      <trkpt lat="43.70034" lon="6.97641">
        <ele>440</ele>
        <time>2012-04-17T15:35:21Z</time>
      </trkpt>
      <trkpt lat="43.70037" lon="6.97636">
        <ele>441</ele>
        <time>2012-04-17T15:35:28Z</time>
      </trkpt>
      <trkpt lat="43.70038" lon="6.97628">
        <ele>442</ele>
        <time>2012-04-17T15:35:38Z</time>
      </trkpt>
      <trkpt lat="43.7004" lon="6.97621">
        <ele>443</ele>
        <time>2012-04-17T15:35:48Z</time>
      </trkpt>
      <trkpt lat="43.70041" lon="6.97617">
        <ele>443</ele>
        <time>2012-04-17T15:35:56Z</time>
      </trkpt>
      <trkpt lat="43.70041" lon="6.97614">
        <ele>443</ele>
        <time>2012-04-17T15:36:02Z</time>
      </trkpt>
      <trkpt lat="43.70042" lon="6.97608">
        <ele>444</ele>
        <time>2012-04-17T15:36:09Z</time>
      </trkpt>
      <trkpt lat="43.70043" lon="6.97598">
        <ele>445</ele>
        <time>2012-04-17T15:36:20Z</time>
      </trkpt>
      <trkpt lat="43.70044" lon="6.9759">
        <ele>445</ele>
        <time>2012-04-17T15:36:30Z</time>
      </trkpt>
      <trkpt lat="43.70045" lon="6.97584">
        <ele>446</ele>
        <time>2012-04-17T15:36:39Z</time>
      </trkpt>
      <trkpt lat="43.70046" lon="6.97575">
        <ele>452</ele>
        <time>2012-04-17T15:36:46Z</time>
      </trkpt>
      <trkpt lat="43.70047" lon="6.97569">
        <ele>452</ele>
        <time>2012-04-17T15:36:52Z</time>
      </trkpt>
      <trkpt lat="43.70049" lon="6.97566">
        <ele>452</ele>
        <time>2012-04-17T15:36:58Z</time>
      </trkpt>
      <trkpt lat="43.7005" lon="6.97561">
        <ele>453</ele>
        <time>2012-04-17T15:37:06Z</time>
      </trkpt>
      <trkpt lat="43.70056" lon="6.97545">
        <ele>454</ele>
        <time>2012-04-17T15:37:15Z</time>
      </trkpt>
      <trkpt lat="43.70059" lon="6.97533">
        <ele>455</ele>
        <time>2012-04-17T15:37:23Z</time>
      </trkpt>
      <trkpt lat="43.70061" lon="6.97525">
        <ele>457</ele>
        <time>2012-04-17T15:37:29Z</time>
      </trkpt>
      <trkpt lat="43.70061" lon="6.9752">
        <ele>457</ele>
        <time>2012-04-17T15:37:32Z</time>
      </trkpt>
      <trkpt lat="43.7006" lon="6.97512">
        <ele>458</ele>
        <time>2012-04-17T15:37:37Z</time>
      </trkpt>
      <trkpt lat="43.70061" lon="6.97496">
        <ele>462</ele>
        <time>2012-04-17T15:37:45Z</time>
      </trkpt>
      <trkpt lat="43.70064" lon="6.97486">
        <ele>462</ele>
        <time>2012-04-17T15:37:53Z</time>
      </trkpt>
      <trkpt lat="43.70068" lon="6.97481">
        <ele>463</ele>
        <time>2012-04-17T15:37:59Z</time>
      </trkpt>
      <trkpt lat="43.70072" lon="6.97476">
        <ele>463</ele>
        <time>2012-04-17T15:38:06Z</time>
      </trkpt>
      <trkpt lat="43.70075" lon="6.97469">
        <ele>463</ele>
        <time>2012-04-17T15:38:15Z</time>
      </trkpt>
      <trkpt lat="43.70078" lon="6.97464">
        <ele>463</ele>
        <time>2012-04-17T15:38:23Z</time>
      </trkpt>
      <trkpt lat="43.70083" lon="6.97464">
        <ele>463</ele>
        <time>2012-04-17T15:38:31Z</time>
      </trkpt>
      <trkpt lat="43.70086" lon="6.97469">
        <ele>485</ele>
        <time>2012-04-17T15:38:38Z</time>
      </trkpt>
      <trkpt lat="43.70087" lon="6.97471">
        <ele>485</ele>
        <time>2012-04-17T15:38:40Z</time>
      </trkpt>
      <trkpt lat="43.70091" lon="6.97479">
        <ele>484</ele>
        <time>2012-04-17T15:38:48Z</time>
      </trkpt>
      <trkpt lat="43.70095" lon="6.97486">
        <ele>483</ele>
        <time>2012-04-17T15:38:56Z</time>
      </trkpt>
      <trkpt lat="43.70097" lon="6.97489">
        <ele>483</ele>
        <time>2012-04-17T15:39:02Z</time>
      </trkpt>
      <trkpt lat="43.701" lon="6.97493">
        <ele>484</ele>
        <time>2012-04-17T15:39:09Z</time>
      </trkpt>
      <trkpt lat="43.70102" lon="6.97494">
        <ele>484</ele>
        <time>2012-04-17T15:39:16Z</time>
      </trkpt>
      <trkpt lat="43.70104" lon="6.97491">
        <ele>486</ele>
        <time>2012-04-17T15:39:24Z</time>
      </trkpt>
      <trkpt lat="43.70106" lon="6.97486">
        <ele>487</ele>
        <time>2012-04-17T15:39:30Z</time>
      </trkpt>
      <trkpt lat="43.70107" lon="6.9748">
        <ele>488</ele>
        <time>2012-04-17T15:39:36Z</time>
      </trkpt>
      <trkpt lat="43.70112" lon="6.97473">
        <ele>490</ele>
        <time>2012-04-17T15:39:45Z</time>
      </trkpt>
      <trkpt lat="43.70116" lon="6.97466">
        <ele>491</ele>
        <time>2012-04-17T15:39:54Z</time>
      </trkpt>
      <trkpt lat="43.70119" lon="6.9746">
        <ele>492</ele>
        <time>2012-04-17T15:40:02Z</time>
      </trkpt>
      <trkpt lat="43.70123" lon="6.97453">
        <ele>493</ele>
        <time>2012-04-17T15:40:10Z</time>
      </trkpt>
      <trkpt lat="43.70127" lon="6.9745">
        <ele>494</ele>
        <time>2012-04-17T15:40:17Z</time>
      </trkpt>
      <trkpt lat="43.70131" lon="6.97445">
        <ele>495</ele>
        <time>2012-04-17T15:40:24Z</time>
      </trkpt>
      <trkpt lat="43.70132" lon="6.97443">
        <ele>495</ele>
        <time>2012-04-17T15:40:31Z</time>
      </trkpt>
      <trkpt lat="43.70137" lon="6.97439">
        <ele>497</ele>
        <time>2012-04-17T15:40:37Z</time>
      </trkpt>
      <trkpt lat="43.70139" lon="6.97436">
        <ele>497</ele>
        <time>2012-04-17T15:40:40Z</time>
      </trkpt>
      <trkpt lat="43.70142" lon="6.97424">
        <ele>499</ele>
        <time>2012-04-17T15:40:48Z</time>
      </trkpt>
      <trkpt lat="43.70142" lon="6.97412">
        <ele>500</ele>
        <time>2012-04-17T15:40:55Z</time>
      </trkpt>
      <trkpt lat="43.70143" lon="6.97408">
        <ele>500</ele>
        <time>2012-04-17T15:40:58Z</time>
      </trkpt>
      <trkpt lat="43.70144" lon="6.97406">
        <ele>500</ele>
        <time>2012-04-17T15:41:00Z</time>
      </trkpt>
      <trkpt lat="43.70145" lon="6.97398">
        <ele>499</ele>
        <time>2012-04-17T15:41:05Z</time>
      </trkpt>
      <trkpt lat="43.7015" lon="6.97385">
        <ele>499</ele>
        <time>2012-04-17T15:41:12Z</time>
      </trkpt>
      <trkpt lat="43.70157" lon="6.97374">
        <ele>500</ele>
        <time>2012-04-17T15:41:20Z</time>
      </trkpt>
      <trkpt lat="43.7016" lon="6.9737">
        <ele>500</ele>
        <time>2012-04-17T15:41:24Z</time>
      </trkpt>
      <trkpt lat="43.70162" lon="6.97361">
        <ele>501</ele>
        <time>2012-04-17T15:41:31Z</time>
      </trkpt>
      <trkpt lat="43.70166" lon="6.97353">
        <ele>503</ele>
        <time>2012-04-17T15:41:37Z</time>
      </trkpt>
      <trkpt lat="43.70174" lon="6.97342">
        <ele>519</ele>
        <time>2012-04-17T15:41:46Z</time>
      </trkpt>
      <trkpt lat="43.70181" lon="6.97333">
        <ele>522</ele>
        <time>2012-04-17T15:41:54Z</time>
      </trkpt>
      <trkpt lat="43.70187" lon="6.97324">
        <ele>525</ele>
        <time>2012-04-17T15:42:02Z</time>
      </trkpt>
      <trkpt lat="43.70192" lon="6.97315">
        <ele>529</ele>
        <time>2012-04-17T15:42:09Z</time>
      </trkpt>
      <trkpt lat="43.70199" lon="6.97304">
        <ele>532</ele>
        <time>2012-04-17T15:42:18Z</time>
      </trkpt>
      <trkpt lat="43.70204" lon="6.97296">
        <ele>533</ele>
        <time>2012-04-17T15:42:25Z</time>
      </trkpt>
      <trkpt lat="43.70205" lon="6.9729">
        <ele>533</ele>
        <time>2012-04-17T15:42:30Z</time>
      </trkpt>
      <trkpt lat="43.70209" lon="6.9728">
        <ele>535</ele>
        <time>2012-04-17T15:42:38Z</time>
      </trkpt>
      <trkpt lat="43.70212" lon="6.97272">
        <ele>535</ele>
        <time>2012-04-17T15:42:44Z</time>
      </trkpt>
      <trkpt lat="43.70213" lon="6.9726">
        <ele>536</ele>
        <time>2012-04-17T15:42:50Z</time>
      </trkpt>
      <trkpt lat="43.70214" lon="6.97244">
        <ele>536</ele>
        <time>2012-04-17T15:42:58Z</time>
      </trkpt>
      <trkpt lat="43.70212" lon="6.97231">
        <ele>535</ele>
        <time>2012-04-17T15:43:06Z</time>
      </trkpt>
      <trkpt lat="43.70212" lon="6.97223">
        <ele>534</ele>
        <time>2012-04-17T15:43:27Z</time>
      </trkpt>
      <trkpt lat="43.70213" lon="6.97211">
        <ele>535</ele>
        <time>2012-04-17T15:43:33Z</time>
      </trkpt>
      <trkpt lat="43.70212" lon="6.97192">
        <ele>534</ele>
        <time>2012-04-17T15:43:41Z</time>
      </trkpt>
      <trkpt lat="43.70209" lon="6.9718">
        <ele>534</ele>
        <time>2012-04-17T15:43:46Z</time>
      </trkpt>
      <trkpt lat="43.70213" lon="6.97169">
        <ele>535</ele>
        <time>2012-04-17T15:43:51Z</time>
      </trkpt>
      <trkpt lat="43.70213" lon="6.97165">
        <ele>536</ele>
        <time>2012-04-17T15:43:57Z</time>
      </trkpt>
      <trkpt lat="43.70214" lon="6.97167">
        <ele>535</ele>
        <time>2012-04-17T15:44:07Z</time>
      </trkpt>
      <trkpt lat="43.70216" lon="6.97172">
        <ele>536</ele>
        <time>2012-04-17T15:44:11Z</time>
      </trkpt>
      <trkpt lat="43.70221" lon="6.97189">
        <ele>537</ele>
        <time>2012-04-17T15:44:21Z</time>
      </trkpt>
      <trkpt lat="43.70226" lon="6.97205">
        <ele>538</ele>
        <time>2012-04-17T15:44:30Z</time>
      </trkpt>
      <trkpt lat="43.70229" lon="6.97217">
        <ele>539</ele>
        <time>2012-04-17T15:44:37Z</time>
      </trkpt>
      <trkpt lat="43.70229" lon="6.97239">
        <ele>541</ele>
        <time>2012-04-17T15:44:47Z</time>
      </trkpt>
      <trkpt lat="43.7023" lon="6.97252">
        <ele>543</ele>
        <time>2012-04-17T15:44:54Z</time>
      </trkpt>
      <trkpt lat="43.7023" lon="6.97271">
        <ele>541</ele>
        <time>2012-04-17T15:45:03Z</time>
      </trkpt>
      <trkpt lat="43.70231" lon="6.97288">
        <ele>540</ele>
        <time>2012-04-17T15:45:11Z</time>
      </trkpt>
      <trkpt lat="43.70236" lon="6.97288">
        <ele>541</ele>
        <time>2012-04-17T15:45:16Z</time>
      </trkpt>
      <trkpt lat="43.70235" lon="6.97274">
        <ele>542</ele>
        <time>2012-04-17T15:45:23Z</time>
      </trkpt>
      <trkpt lat="43.70237" lon="6.97256">
        <ele>546</ele>
        <time>2012-04-17T15:45:32Z</time>
      </trkpt>
      <trkpt lat="43.70239" lon="6.97245">
        <ele>546</ele>
        <time>2012-04-17T15:45:38Z</time>
      </trkpt>
      <trkpt lat="43.70242" lon="6.9723">
        <ele>543</ele>
        <time>2012-04-17T15:45:46Z</time>
      </trkpt>
      <trkpt lat="43.70246" lon="6.97212">
        <ele>541</ele>
        <time>2012-04-17T15:45:55Z</time>
      </trkpt>
      <trkpt lat="43.7025" lon="6.97196">
        <ele>542</ele>
        <time>2012-04-17T15:46:04Z</time>
      </trkpt>
      <trkpt lat="43.7025" lon="6.97188">
        <ele>568</ele>
        <time>2012-04-17T15:46:08Z</time>
      </trkpt>
      <trkpt lat="43.7025" lon="6.9717">
        <ele>559</ele>
        <time>2012-04-17T15:46:17Z</time>
      </trkpt>
      <trkpt lat="43.70249" lon="6.97161">
        <ele>551</ele>
        <time>2012-04-17T15:46:23Z</time>
      </trkpt>
      <trkpt lat="43.7025" lon="6.9716">
        <ele>562</ele>
        <time>2012-04-17T15:46:24Z</time>
      </trkpt>
      <trkpt lat="43.70253" lon="6.97167">
        <ele>558</ele>
        <time>2012-04-17T15:46:29Z</time>
      </trkpt>
      <trkpt lat="43.70258" lon="6.97186">
        <ele>569</ele>
        <time>2012-04-17T15:46:39Z</time>
      </trkpt>
      <trkpt lat="43.70262" lon="6.97202">
        <ele>573</ele>
        <time>2012-04-17T15:46:47Z</time>
      </trkpt>
      <trkpt lat="43.70264" lon="6.97219">
        <ele>573</ele>
        <time>2012-04-17T15:46:56Z</time>
      </trkpt>
      <trkpt lat="43.70266" lon="6.9724">
        <ele>569</ele>
        <time>2012-04-17T15:47:06Z</time>
      </trkpt>
      <trkpt lat="43.70267" lon="6.97256">
        <ele>569</ele>
        <time>2012-04-17T15:47:14Z</time>
      </trkpt>
      <trkpt lat="43.70268" lon="6.97259">
        <ele>570</ele>
        <time>2012-04-17T15:47:16Z</time>
      </trkpt>
      <trkpt lat="43.7027" lon="6.97258">
        <ele>571</ele>
        <time>2012-04-17T15:47:20Z</time>
      </trkpt>
      <trkpt lat="43.70271" lon="6.97234">
        <ele>573</ele>
        <time>2012-04-17T15:47:30Z</time>
      </trkpt>
      <trkpt lat="43.70272" lon="6.97209">
        <ele>576</ele>
        <time>2012-04-17T15:47:37Z</time>
      </trkpt>
      <trkpt lat="43.70272" lon="6.97191">
        <ele>574</ele>
        <time>2012-04-17T15:47:42Z</time>
      </trkpt>
      <trkpt lat="43.70271" lon="6.97178">
        <ele>572</ele>
        <time>2012-04-17T15:47:46Z</time>
      </trkpt>
      <trkpt lat="43.70271" lon="6.97144">
        <ele>577</ele>
        <time>2012-04-17T15:47:56Z</time>
      </trkpt>
      <trkpt lat="43.7027" lon="6.9713">
        <ele>579</ele>
        <time>2012-04-17T15:48:02Z</time>
      </trkpt>
      <trkpt lat="43.7027" lon="6.97115">
        <ele>580</ele>
        <time>2012-04-17T15:48:09Z</time>
      </trkpt>
      <trkpt lat="43.70271" lon="6.97099">
        <ele>578</ele>
        <time>2012-04-17T15:48:18Z</time>
      </trkpt>
      <trkpt lat="43.70272" lon="6.97087">
        <ele>577</ele>
        <time>2012-04-17T15:48:25Z</time>
      </trkpt>
      <trkpt lat="43.70271" lon="6.97076">
        <ele>581</ele>
        <time>2012-04-17T15:48:31Z</time>
      </trkpt>
      <trkpt lat="43.7027" lon="6.97064">
        <ele>583</ele>
        <time>2012-04-17T15:48:37Z</time>
      </trkpt>
      <trkpt lat="43.7027" lon="6.97053">
        <ele>584</ele>
        <time>2012-04-17T15:48:42Z</time>
      </trkpt>
      <trkpt lat="43.70269" lon="6.97049">
        <ele>585</ele>
        <time>2012-04-17T15:48:44Z</time>
      </trkpt>
      <trkpt lat="43.70268" lon="6.9704">
        <ele>585</ele>
        <time>2012-04-17T15:48:48Z</time>
      </trkpt>
      <trkpt lat="43.70268" lon="6.97019">
        <ele>583</ele>
        <time>2012-04-17T15:48:55Z</time>
      </trkpt>
      <trkpt lat="43.70267" lon="6.97002">
        <ele>580</ele>
        <time>2012-04-17T15:49:01Z</time>
      </trkpt>
      <trkpt lat="43.70266" lon="6.96983">
        <ele>585</ele>
        <time>2012-04-17T15:49:07Z</time>
      </trkpt>
      <trkpt lat="43.70264" lon="6.96963">
        <ele>588</ele>
        <time>2012-04-17T15:49:14Z</time>
      </trkpt>
      <trkpt lat="43.70264" lon="6.96945">
        <ele>587</ele>
        <time>2012-04-17T15:49:21Z</time>
      </trkpt>
      <trkpt lat="43.70265" lon="6.96926">
        <ele>583</ele>
        <time>2012-04-17T15:49:28Z</time>
      </trkpt>
      <trkpt lat="43.70266" lon="6.96914">
        <ele>584</ele>
        <time>2012-04-17T15:49:33Z</time>
      </trkpt>
      <trkpt lat="43.70265" lon="6.96896">
        <ele>588</ele>
        <time>2012-04-17T15:49:40Z</time>
      </trkpt>
      <trkpt lat="43.70263" lon="6.96881">
        <ele>590</ele>
        <time>2012-04-17T15:49:46Z</time>
      </trkpt>
      <trkpt lat="43.70263" lon="6.96859">
        <ele>588</ele>
        <time>2012-04-17T15:49:54Z</time>
      </trkpt>
      <trkpt lat="43.70264" lon="6.96842">
        <ele>584</ele>
        <time>2012-04-17T15:50:00Z</time>
      </trkpt>
      <trkpt lat="43.70267" lon="6.96824">
        <ele>586</ele>
        <time>2012-04-17T15:50:07Z</time>
      </trkpt>
      <trkpt lat="43.70272" lon="6.96808">
        <ele>592</ele>
        <time>2012-04-17T15:50:13Z</time>
      </trkpt>
      <trkpt lat="43.70268" lon="6.96788">
        <ele>592</ele>
        <time>2012-04-17T15:50:20Z</time>
      </trkpt>
      <trkpt lat="43.7027" lon="6.96768">
        <ele>589</ele>
        <time>2012-04-17T15:50:27Z</time>
      </trkpt>
      <trkpt lat="43.70276" lon="6.96751">
        <ele>591</ele>
        <time>2012-04-17T15:50:34Z</time>
      </trkpt>
      <trkpt lat="43.70281" lon="6.96737">
        <ele>598</ele>
        <time>2012-04-17T15:50:40Z</time>
      </trkpt>
      <trkpt lat="43.70279" lon="6.96722">
        <ele>599</ele>
        <time>2012-04-17T15:50:45Z</time>
      </trkpt>
      <trkpt lat="43.70271" lon="6.96698">
        <ele>598</ele>
        <time>2012-04-17T15:50:51Z</time>
      </trkpt>
      <trkpt lat="43.70263" lon="6.96672">
        <ele>589</ele>
        <time>2012-04-17T15:50:58Z</time>
      </trkpt>
      <trkpt lat="43.70258" lon="6.96651">
        <ele>596</ele>
        <time>2012-04-17T15:51:04Z</time>
      </trkpt>
      <trkpt lat="43.70257" lon="6.96639">
        <ele>602</ele>
        <time>2012-04-17T15:51:07Z</time>
      </trkpt>
      <trkpt lat="43.70256" lon="6.96623">
        <ele>606</ele>
        <time>2012-04-17T15:51:12Z</time>
      </trkpt>
      <trkpt lat="43.70254" lon="6.96612">
        <ele>606</ele>
        <time>2012-04-17T15:51:16Z</time>
      </trkpt>
      <trkpt lat="43.70254" lon="6.96608">
        <ele>606</ele>
        <time>2012-04-17T15:51:21Z</time>
      </trkpt>
      <trkpt lat="43.70254" lon="6.96594">
        <ele>603</ele>
        <time>2012-04-17T15:51:25Z</time>
      </trkpt>
      <trkpt lat="43.70249" lon="6.96564">
        <ele>596</ele>
        <time>2012-04-17T15:51:31Z</time>
      </trkpt>
      <trkpt lat="43.7024" lon="6.96529">
        <ele>599</ele>
        <time>2012-04-17T15:51:37Z</time>
      </trkpt>
      <trkpt lat="43.70234" lon="6.96506">
        <ele>602</ele>
        <time>2012-04-17T15:51:41Z</time>
      </trkpt>
      <trkpt lat="43.70224" lon="6.96461">
        <ele>609</ele>
        <time>2012-04-17T15:51:48Z</time>
      </trkpt>
      <trkpt lat="43.70217" lon="6.96431">
        <ele>611</ele>
        <time>2012-04-17T15:51:54Z</time>
      </trkpt>
      <trkpt lat="43.70212" lon="6.96404">
        <ele>618</ele>
        <time>2012-04-17T15:52:00Z</time>
      </trkpt>
      <trkpt lat="43.70203" lon="6.96379">
        <ele>618</ele>
        <time>2012-04-17T15:52:06Z</time>
      </trkpt>
      <trkpt lat="43.70195" lon="6.96355">
        <ele>618</ele>
        <time>2012-04-17T15:52:13Z</time>
      </trkpt>
      <trkpt lat="43.70192" lon="6.96339">
        <ele>618</ele>
        <time>2012-04-17T15:52:19Z</time>
      </trkpt>
      <trkpt lat="43.70186" lon="6.96321">
        <ele>623</ele>
        <time>2012-04-17T15:52:26Z</time>
      </trkpt>
      <trkpt lat="43.70175" lon="6.96299">
        <ele>625</ele>
        <time>2012-04-17T15:52:35Z</time>
      </trkpt>
      <trkpt lat="43.70165" lon="6.96278">
        <ele>619</ele>
        <time>2012-04-17T15:52:43Z</time>
      </trkpt>
      <trkpt lat="43.70154" lon="6.96258">
        <ele>620</ele>
        <time>2012-04-17T15:52:51Z</time>
      </trkpt>
      <trkpt lat="43.70147" lon="6.96245">
        <ele>626</ele>
        <time>2012-04-17T15:52:57Z</time>
      </trkpt>
      <trkpt lat="43.70138" lon="6.96231">
        <ele>627</ele>
        <time>2012-04-17T15:53:04Z</time>
      </trkpt>
      <trkpt lat="43.70125" lon="6.96216">
        <ele>628</ele>
        <time>2012-04-17T15:53:13Z</time>
      </trkpt>
      <trkpt lat="43.70115" lon="6.96204">
        <ele>629</ele>
        <time>2012-04-17T15:53:20Z</time>
      </trkpt>
      <trkpt lat="43.70105" lon="6.96189">
        <ele>629</ele>
        <time>2012-04-17T15:53:27Z</time>
      </trkpt>
      <trkpt lat="43.70091" lon="6.96176">
        <ele>628</ele>
        <time>2012-04-17T15:53:34Z</time>
      </trkpt>
      <trkpt lat="43.70078" lon="6.96163">
        <ele>629</ele>
        <time>2012-04-17T15:53:41Z</time>
      </trkpt>
      <trkpt lat="43.70062" lon="6.96145">
        <ele>631</ele>
        <time>2012-04-17T15:53:50Z</time>
      </trkpt>
      <trkpt lat="43.70054" lon="6.96132">
        <ele>632</ele>
        <time>2012-04-17T15:53:56Z</time>
      </trkpt>
      <trkpt lat="43.70058" lon="6.96125">
        <ele>633</ele>
        <time>2012-04-17T15:54:01Z</time>
      </trkpt>
      <trkpt lat="43.70065" lon="6.96131">
        <ele>633</ele>
        <time>2012-04-17T15:54:04Z</time>
      </trkpt>
      <trkpt lat="43.701" lon="6.96155">
        <ele>638</ele>
        <time>2012-04-17T15:54:14Z</time>
      </trkpt>
      <trkpt lat="43.70135" lon="6.9618">
        <ele>632</ele>
        <time>2012-04-17T15:54:23Z</time>
      </trkpt>
      <trkpt lat="43.70174" lon="6.96209">
        <ele>643</ele>
        <time>2012-04-17T15:54:33Z</time>
      </trkpt>
      <trkpt lat="43.70209" lon="6.96246">
        <ele>644</ele>
        <time>2012-04-17T15:54:43Z</time>
      </trkpt>
      <trkpt lat="43.70231" lon="6.96288">
        <ele>635</ele>
        <time>2012-04-17T15:54:52Z</time>
      </trkpt>
      <trkpt lat="43.7025" lon="6.96329">
        <ele>641</ele>
        <time>2012-04-17T15:55:01Z</time>
      </trkpt>
      <trkpt lat="43.70278" lon="6.96387">
        <ele>647</ele>
        <time>2012-04-17T15:55:14Z</time>
      </trkpt>
      <trkpt lat="43.70289" lon="6.96429">
        <ele>641</ele>
        <time>2012-04-17T15:55:22Z</time>
      </trkpt>
      <trkpt lat="43.70297" lon="6.96474">
        <ele>641</ele>
        <time>2012-04-17T15:55:30Z</time>
      </trkpt>
      <trkpt lat="43.70304" lon="6.96514">
        <ele>636</ele>
        <time>2012-04-17T15:55:37Z</time>
      </trkpt>
      <trkpt lat="43.70313" lon="6.9657">
        <ele>636</ele>
        <time>2012-04-17T15:55:47Z</time>
      </trkpt>
      <trkpt lat="43.70321" lon="6.96619">
        <ele>627</ele>
        <time>2012-04-17T15:55:56Z</time>
      </trkpt>
      <trkpt lat="43.70335" lon="6.9669">
        <ele>654</ele>
        <time>2012-04-17T15:56:09Z</time>
      </trkpt>
      <trkpt lat="43.70341" lon="6.96725">
        <ele>653</ele>
        <time>2012-04-17T15:56:16Z</time>
      </trkpt>
      <trkpt lat="43.70346" lon="6.9678">
        <ele>651</ele>
        <time>2012-04-17T15:56:26Z</time>
      </trkpt>
      <trkpt lat="43.70349" lon="6.96834">
        <ele>642</ele>
        <time>2012-04-17T15:56:36Z</time>
      </trkpt>
      <trkpt lat="43.70355" lon="6.96877">
        <ele>647</ele>
        <time>2012-04-17T15:56:44Z</time>
      </trkpt>
      <trkpt lat="43.70364" lon="6.96937">
        <ele>643</ele>
        <time>2012-04-17T15:56:55Z</time>
      </trkpt>
      <trkpt lat="43.7037" lon="6.96986">
        <ele>643</ele>
        <time>2012-04-17T15:57:04Z</time>
      </trkpt>
      <trkpt lat="43.7038" lon="6.97028">
        <ele>639</ele>
        <time>2012-04-17T15:57:12Z</time>
      </trkpt>
      <trkpt lat="43.70404" lon="6.97064">
        <ele>643</ele>
        <time>2012-04-17T15:57:21Z</time>
      </trkpt>
      <trkpt lat="43.70436" lon="6.97097">
        <ele>651</ele>
        <time>2012-04-17T15:57:31Z</time>
      </trkpt>
      <trkpt lat="43.70457" lon="6.97121">
        <ele>653</ele>
        <time>2012-04-17T15:57:38Z</time>
      </trkpt>
      <trkpt lat="43.70484" lon="6.97144">
        <ele>653</ele>
        <time>2012-04-17T15:57:46Z</time>
      </trkpt>
      <trkpt lat="43.70513" lon="6.9716">
        <ele>659</ele>
        <time>2012-04-17T15:57:54Z</time>
      </trkpt>
      <trkpt lat="43.7054" lon="6.97167">
        <ele>652</ele>
        <time>2012-04-17T15:58:01Z</time>
      </trkpt>
      <trkpt lat="43.70571" lon="6.9717">
        <ele>656</ele>
        <time>2012-04-17T15:58:09Z</time>
      </trkpt>
      <trkpt lat="43.70603" lon="6.97169">
        <ele>658</ele>
        <time>2012-04-17T15:58:17Z</time>
      </trkpt>
      <trkpt lat="43.70642" lon="6.97176">
        <ele>659</ele>
        <time>2012-04-17T15:58:27Z</time>
      </trkpt>
      <trkpt lat="43.70685" lon="6.97193">
        <ele>664</ele>
        <time>2012-04-17T15:58:38Z</time>
      </trkpt>
      <trkpt lat="43.70716" lon="6.97218">
        <ele>664</ele>
        <time>2012-04-17T15:58:47Z</time>
      </trkpt>
      <trkpt lat="43.70741" lon="6.97253">
        <ele>663</ele>
        <time>2012-04-17T15:58:56Z</time>
      </trkpt>
      <trkpt lat="43.70756" lon="6.97292">
        <ele>668</ele>
        <time>2012-04-17T15:59:04Z</time>
      </trkpt>
      <trkpt lat="43.70763" lon="6.97342">
        <ele>665</ele>
        <time>2012-04-17T15:59:13Z</time>
      </trkpt>
      <trkpt lat="43.70766" lon="6.97393">
        <ele>666</ele>
        <time>2012-04-17T15:59:22Z</time>
      </trkpt>
      <trkpt lat="43.70771" lon="6.97454">
        <ele>666</ele>
        <time>2012-04-17T15:59:33Z</time>
      </trkpt>
      <trkpt lat="43.70784" lon="6.97487">
        <ele>667</ele>
        <time>2012-04-17T15:59:40Z</time>
      </trkpt>
      <trkpt lat="43.708" lon="6.97507">
        <ele>665</ele>
        <time>2012-04-17T15:59:46Z</time>
      </trkpt>
      <trkpt lat="43.70821" lon="6.97519">
        <ele>667</ele>
        <time>2012-04-17T15:59:52Z</time>
      </trkpt>
      <trkpt lat="43.70848" lon="6.97522">
        <ele>668</ele>
        <time>2012-04-17T15:59:59Z</time>
      </trkpt>
      <trkpt lat="43.70883" lon="6.97519">
        <ele>668</ele>
        <time>2012-04-17T16:00:08Z</time>
      </trkpt>
      <trkpt lat="43.70906" lon="6.9751">
        <ele>670</ele>
        <time>2012-04-17T16:00:15Z</time>
      </trkpt>
      <trkpt lat="43.70941" lon="6.97493">
        <ele>671</ele>
        <time>2012-04-17T16:00:24Z</time>
      </trkpt>
      <trkpt lat="43.70957" lon="6.97481">
        <ele>670</ele>
        <time>2012-04-17T16:00:28Z</time>
      </trkpt>
      <trkpt lat="43.70971" lon="6.97464">
        <ele>670</ele>
        <time>2012-04-17T16:00:32Z</time>
      </trkpt>
      <trkpt lat="43.70985" lon="6.97429">
        <ele>670</ele>
        <time>2012-04-17T16:00:38Z</time>
      </trkpt>
      <trkpt lat="43.70991" lon="6.97383">
        <ele>673</ele>
        <time>2012-04-17T16:00:45Z</time>
      </trkpt>
      <trkpt lat="43.70991" lon="6.97325">
        <ele>673</ele>
        <time>2012-04-17T16:00:54Z</time>
      </trkpt>
      <trkpt lat="43.7099" lon="6.97263">
        <ele>677</ele>
        <time>2012-04-17T16:01:04Z</time>
      </trkpt>
      <trkpt lat="43.7099" lon="6.97257">
        <ele>677</ele>
        <time>2012-04-17T16:01:05Z</time>
      </trkpt>
      <trkpt lat="43.71003" lon="6.97226">
        <ele>680</ele>
        <time>2012-04-17T16:01:11Z</time>
      </trkpt>
      <trkpt lat="43.71024" lon="6.97213">
        <ele>682</ele>
        <time>2012-04-17T16:01:16Z</time>
      </trkpt>
      <trkpt lat="43.71046" lon="6.97219">
        <ele>682</ele>
        <time>2012-04-17T16:01:21Z</time>
      </trkpt>
      <trkpt lat="43.71051" lon="6.97222">
        <ele>682</ele>
        <time>2012-04-17T16:01:22Z</time>
      </trkpt>
      <trkpt lat="43.711" lon="6.9726">
        <ele>674</ele>
        <time>2012-04-17T16:01:33Z</time>
      </trkpt>
      <trkpt lat="43.71125" lon="6.97266">
        <ele>673</ele>
        <time>2012-04-17T16:01:38Z</time>
      </trkpt>
      <trkpt lat="43.71135" lon="6.97265">
        <ele>674</ele>
        <time>2012-04-17T16:01:40Z</time>
      </trkpt>
      <trkpt lat="43.71171" lon="6.97257">
        <ele>681</ele>
        <time>2012-04-17T16:01:47Z</time>
      </trkpt>
      <trkpt lat="43.71206" lon="6.9727">
        <ele>680</ele>
        <time>2012-04-17T16:01:54Z</time>
      </trkpt>
      <trkpt lat="43.71249" lon="6.97291">
        <ele>680</ele>
        <time>2012-04-17T16:02:03Z</time>
      </trkpt>
      <trkpt lat="43.71254" lon="6.97293">
        <ele>687</ele>
        <time>2012-04-17T16:02:04Z</time>
      </trkpt>
      <trkpt lat="43.71275" lon="6.97314">
        <ele>686</ele>
        <time>2012-04-17T16:02:09Z</time>
      </trkpt>
      <trkpt lat="43.71278" lon="6.9732">
        <ele>686</ele>
        <time>2012-04-17T16:02:10Z</time>
      </trkpt>
      <trkpt lat="43.71289" lon="6.97342">
        <ele>675</ele>
        <time>2012-04-17T16:02:14Z</time>
      </trkpt>
      <trkpt lat="43.71309" lon="6.97363">
        <ele>674</ele>
        <time>2012-04-17T16:02:19Z</time>
      </trkpt>
      <trkpt lat="43.71324" lon="6.97366">
        <ele>675</ele>
        <time>2012-04-17T16:02:22Z</time>
      </trkpt>
      <trkpt lat="43.71366" lon="6.97357">
        <ele>676</ele>
        <time>2012-04-17T16:02:30Z</time>
      </trkpt>
      <trkpt lat="43.71376" lon="6.97354">
        <ele>677</ele>
        <time>2012-04-17T16:02:33Z</time>
      </trkpt>
      <trkpt lat="43.71378" lon="6.97354">
        <ele>677</ele>
        <time>2012-04-17T16:02:36Z</time>
      </trkpt>
      <trkpt lat="43.71392" lon="6.97348">
        <ele>680</ele>
        <time>2012-04-17T16:02:41Z</time>
      </trkpt>
      <trkpt lat="43.71401" lon="6.97346">
        <ele>683</ele>
        <time>2012-04-17T16:02:43Z</time>
      </trkpt>
      <trkpt lat="43.71435" lon="6.97351">
        <ele>682</ele>
        <time>2012-04-17T16:02:50Z</time>
      </trkpt>
      <trkpt lat="43.71459" lon="6.97359">
        <ele>679</ele>
        <time>2012-04-17T16:02:55Z</time>
      </trkpt>
      <trkpt lat="43.71488" lon="6.97355">
        <ele>683</ele>
        <time>2012-04-17T16:03:01Z</time>
      </trkpt>
      <trkpt lat="43.71493" lon="6.97355">
        <ele>684</ele>
        <time>2012-04-17T16:03:02Z</time>
      </trkpt>
      <trkpt lat="43.71526" lon="6.97363">
        <ele>684</ele>
        <time>2012-04-17T16:03:09Z</time>
      </trkpt>
      <trkpt lat="43.71554" lon="6.97373">
        <ele>682</ele>
        <time>2012-04-17T16:03:16Z</time>
      </trkpt>
      <trkpt lat="43.71565" lon="6.97378">
        <ele>680</ele>
        <time>2012-04-17T16:03:21Z</time>
      </trkpt>
      <trkpt lat="43.71563" lon="6.97379">
        <ele>680</ele>
        <time>2012-04-17T16:05:38Z</time>
      </trkpt>
      <trkpt lat="43.71568" lon="6.97364">
        <ele>685</ele>
        <time>2012-04-17T16:05:43Z</time>
      </trkpt>
      <trkpt lat="43.7158" lon="6.9735">
        <ele>692</ele>
        <time>2012-04-17T16:05:47Z</time>
      </trkpt>
      <trkpt lat="43.7159" lon="6.97351">
        <ele>688</ele>
        <time>2012-04-17T16:05:49Z</time>
      </trkpt>
      <trkpt lat="43.71613" lon="6.9736">
        <ele>679</ele>
        <time>2012-04-17T16:05:53Z</time>
      </trkpt>
      <trkpt lat="43.71637" lon="6.97361">
        <ele>675</ele>
        <time>2012-04-17T16:05:57Z</time>
      </trkpt>
      <trkpt lat="43.71656" lon="6.97347">
        <ele>676</ele>
        <time>2012-04-17T16:06:00Z</time>
      </trkpt>
      <trkpt lat="43.71699" lon="6.97295">
        <ele>676</ele>
        <time>2012-04-17T16:06:08Z</time>
      </trkpt>
      <trkpt lat="43.71733" lon="6.97258">
        <ele>671</ele>
        <time>2012-04-17T16:06:14Z</time>
      </trkpt>
      <trkpt lat="43.71754" lon="6.97206">
        <ele>659</ele>
        <time>2012-04-17T16:06:20Z</time>
      </trkpt>
      <trkpt lat="43.7178" lon="6.97106">
        <ele>674</ele>
        <time>2012-04-17T16:06:30Z</time>
      </trkpt>
      <trkpt lat="43.71786" lon="6.97058">
        <ele>684</ele>
        <time>2012-04-17T16:06:35Z</time>
      </trkpt>
      <trkpt lat="43.71787" lon="6.9702">
        <ele>688</ele>
        <time>2012-04-17T16:06:39Z</time>
      </trkpt>
      <trkpt lat="43.71796" lon="6.96987">
        <ele>692</ele>
        <time>2012-04-17T16:06:43Z</time>
      </trkpt>
      <trkpt lat="43.7181" lon="6.96954">
        <ele>689</ele>
        <time>2012-04-17T16:06:47Z</time>
      </trkpt>
      <trkpt lat="43.71817" lon="6.96917">
        <ele>679</ele>
        <time>2012-04-17T16:06:51Z</time>
      </trkpt>
      <trkpt lat="43.71817" lon="6.96878">
        <ele>698</ele>
        <time>2012-04-17T16:06:55Z</time>
      </trkpt>
      <trkpt lat="43.71821" lon="6.96849">
        <ele>696</ele>
        <time>2012-04-17T16:06:58Z</time>
      </trkpt>
      <trkpt lat="43.71833" lon="6.96826">
        <ele>691</ele>
        <time>2012-04-17T16:07:01Z</time>
      </trkpt>
      <trkpt lat="43.71838" lon="6.96819">
        <ele>679</ele>
        <time>2012-04-17T16:07:02Z</time>
      </trkpt>
      <trkpt lat="43.71873" lon="6.96771">
        <ele>678</ele>
        <time>2012-04-17T16:07:10Z</time>
      </trkpt>
      <trkpt lat="43.71903" lon="6.96713">
        <ele>691</ele>
        <time>2012-04-17T16:07:19Z</time>
      </trkpt>
      <trkpt lat="43.71914" lon="6.96697">
        <ele>694</ele>
        <time>2012-04-17T16:07:22Z</time>
      </trkpt>
      <trkpt lat="43.7193" lon="6.96686">
        <ele>691</ele>
        <time>2012-04-17T16:07:26Z</time>
      </trkpt>
      <trkpt lat="43.71944" lon="6.96692">
        <ele>691</ele>
        <time>2012-04-17T16:07:29Z</time>
      </trkpt>
      <trkpt lat="43.71963" lon="6.96704">
        <ele>690</ele>
        <time>2012-04-17T16:07:33Z</time>
      </trkpt>
      <trkpt lat="43.72001" lon="6.96738">
        <ele>688</ele>
        <time>2012-04-17T16:07:42Z</time>
      </trkpt>
      <trkpt lat="43.72006" lon="6.96741">
        <ele>686</ele>
        <time>2012-04-17T16:07:43Z</time>
      </trkpt>
      <trkpt lat="43.7204" lon="6.96756">
        <ele>686</ele>
        <time>2012-04-17T16:07:50Z</time>
      </trkpt>
      <trkpt lat="43.7206" lon="6.96753">
        <ele>690</ele>
        <time>2012-04-17T16:07:54Z</time>
      </trkpt>
      <trkpt lat="43.72079" lon="6.96744">
        <ele>700</ele>
        <time>2012-04-17T16:07:58Z</time>
      </trkpt>
      <trkpt lat="43.72099" lon="6.96757">
        <ele>706</ele>
        <time>2012-04-17T16:08:03Z</time>
      </trkpt>
      <trkpt lat="43.72101" lon="6.96776">
        <ele>709</ele>
        <time>2012-04-17T16:08:06Z</time>
      </trkpt>
      <trkpt lat="43.72091" lon="6.96798">
        <ele>709</ele>
        <time>2012-04-17T16:08:10Z</time>
      </trkpt>
      <trkpt lat="43.72087" lon="6.96802">
        <ele>708</ele>
        <time>2012-04-17T16:08:11Z</time>
      </trkpt>
      <trkpt lat="43.72058" lon="6.96828">
        <ele>689</ele>
        <time>2012-04-17T16:08:19Z</time>
      </trkpt>
      <trkpt lat="43.72039" lon="6.96846">
        <ele>691</ele>
        <time>2012-04-17T16:08:26Z</time>
      </trkpt>
      <trkpt lat="43.72017" lon="6.96852">
        <ele>686</ele>
        <time>2012-04-17T16:08:33Z</time>
      </trkpt>
      <trkpt lat="43.71992" lon="6.96866">
        <ele>671</ele>
        <time>2012-04-17T16:08:43Z</time>
      </trkpt>
      <trkpt lat="43.71974" lon="6.96886">
        <ele>671</ele>
        <time>2012-04-17T16:08:52Z</time>
      </trkpt>
      <trkpt lat="43.71969" lon="6.96904">
        <ele>672</ele>
        <time>2012-04-17T16:08:58Z</time>
      </trkpt>
      <trkpt lat="43.71971" lon="6.96928">
        <ele>676</ele>
        <time>2012-04-17T16:09:05Z</time>
      </trkpt>
      <trkpt lat="43.71981" lon="6.96965">
        <ele>677</ele>
        <time>2012-04-17T16:09:17Z</time>
      </trkpt>
      <trkpt lat="43.71985" lon="6.96986">
        <ele>681</ele>
        <time>2012-04-17T16:09:24Z</time>
      </trkpt>
      <trkpt lat="43.71991" lon="6.97018">
        <ele>678</ele>
        <time>2012-04-17T16:09:35Z</time>
      </trkpt>
      <trkpt lat="43.72003" lon="6.97044">
        <ele>698</ele>
        <time>2012-04-17T16:09:45Z</time>
      </trkpt>
      <trkpt lat="43.72019" lon="6.97066">
        <ele>696</ele>
        <time>2012-04-17T16:09:55Z</time>
      </trkpt>
      <trkpt lat="43.72031" lon="6.9709">
        <ele>696</ele>
        <time>2012-04-17T16:10:04Z</time>
      </trkpt>
      <trkpt lat="43.72038" lon="6.97117">
        <ele>698</ele>
        <time>2012-04-17T16:10:13Z</time>
      </trkpt>
      <trkpt lat="43.72046" lon="6.97155">
        <ele>700</ele>
        <time>2012-04-17T16:10:25Z</time>
      </trkpt>
      <trkpt lat="43.72045" lon="6.97178">
        <ele>699</ele>
        <time>2012-04-17T16:10:32Z</time>
      </trkpt>
      <trkpt lat="43.72039" lon="6.97219">
        <ele>698</ele>
        <time>2012-04-17T16:10:45Z</time>
      </trkpt>
      <trkpt lat="43.72035" lon="6.9725">
        <ele>698</ele>
        <time>2012-04-17T16:10:55Z</time>
      </trkpt>
      <trkpt lat="43.7204" lon="6.97278">
        <ele>700</ele>
        <time>2012-04-17T16:11:04Z</time>
      </trkpt>
      <trkpt lat="43.72053" lon="6.97306">
        <ele>705</ele>
        <time>2012-04-17T16:11:14Z</time>
      </trkpt>
      <trkpt lat="43.7206" lon="6.97328">
        <ele>710</ele>
        <time>2012-04-17T16:11:22Z</time>
      </trkpt>
      <trkpt lat="43.72062" lon="6.9736">
        <ele>709</ele>
        <time>2012-04-17T16:11:32Z</time>
      </trkpt>
      <trkpt lat="43.72063" lon="6.97402">
        <ele>711</ele>
        <time>2012-04-17T16:11:45Z</time>
      </trkpt>
      <trkpt lat="43.72058" lon="6.97428">
        <ele>709</ele>
        <time>2012-04-17T16:11:54Z</time>
      </trkpt>
      <trkpt lat="43.72057" lon="6.97458">
        <ele>706</ele>
        <time>2012-04-17T16:12:03Z</time>
      </trkpt>
      <trkpt lat="43.72064" lon="6.97499">
        <ele>711</ele>
        <time>2012-04-17T16:12:16Z</time>
      </trkpt>
      <trkpt lat="43.72072" lon="6.97539">
        <ele>710</ele>
        <time>2012-04-17T16:12:29Z</time>
      </trkpt>
      <trkpt lat="43.72082" lon="6.97559">
        <ele>713</ele>
        <time>2012-04-17T16:12:37Z</time>
      </trkpt>
      <trkpt lat="43.72097" lon="6.97566">
        <ele>731</ele>
        <time>2012-04-17T16:12:44Z</time>
      </trkpt>
      <trkpt lat="43.72115" lon="6.97575">
        <ele>734</ele>
        <time>2012-04-17T16:12:53Z</time>
      </trkpt>
      <trkpt lat="43.72122" lon="6.97592">
        <ele>735</ele>
        <time>2012-04-17T16:12:59Z</time>
      </trkpt>
      <trkpt lat="43.72119" lon="6.97612">
        <ele>736</ele>
        <time>2012-04-17T16:13:06Z</time>
      </trkpt>
      <trkpt lat="43.72109" lon="6.97628">
        <ele>735</ele>
        <time>2012-04-17T16:13:13Z</time>
      </trkpt>
      <trkpt lat="43.72097" lon="6.97649">
        <ele>736</ele>
        <time>2012-04-17T16:13:22Z</time>
      </trkpt>
      <trkpt lat="43.72098" lon="6.9767">
        <ele>738</ele>
        <time>2012-04-17T16:13:29Z</time>
      </trkpt>
      <trkpt lat="43.72107" lon="6.97686">
        <ele>739</ele>
        <time>2012-04-17T16:13:36Z</time>
      </trkpt>
      <trkpt lat="43.7212" lon="6.97702">
        <ele>740</ele>
        <time>2012-04-17T16:13:44Z</time>
      </trkpt>
      <trkpt lat="43.72127" lon="6.97722">
        <ele>741</ele>
        <time>2012-04-17T16:13:51Z</time>
      </trkpt>
      <trkpt lat="43.72121" lon="6.97739">
        <ele>741</ele>
        <time>2012-04-17T16:13:58Z</time>
      </trkpt>
      <trkpt lat="43.72109" lon="6.97761">
        <ele>743</ele>
        <time>2012-04-17T16:14:07Z</time>
      </trkpt>
      <trkpt lat="43.72098" lon="6.97778">
        <ele>743</ele>
        <time>2012-04-17T16:14:15Z</time>
      </trkpt>
      <trkpt lat="43.72095" lon="6.97781">
        <ele>743</ele>
        <time>2012-04-17T16:14:21Z</time>
      </trkpt>
      <trkpt lat="43.72095" lon="6.97781">
        <ele>743</ele>
        <time>2012-04-17T16:14:40Z</time>
      </trkpt>
      <trkpt lat="43.72088" lon="6.97791">
        <ele>743</ele>
        <time>2012-04-17T16:14:46Z</time>
      </trkpt>
      <trkpt lat="43.7207" lon="6.97812">
        <ele>744</ele>
        <time>2012-04-17T16:14:57Z</time>
      </trkpt>
      <trkpt lat="43.72053" lon="6.97832">
        <ele>745</ele>
        <time>2012-04-17T16:15:07Z</time>
      </trkpt>
      <trkpt lat="43.72037" lon="6.97851">
        <ele>748</ele>
        <time>2012-04-17T16:15:18Z</time>
      </trkpt>
      <trkpt lat="43.72036" lon="6.97847">
        <ele>748</ele>
        <time>2012-04-17T16:15:23Z</time>
      </trkpt>
      <trkpt lat="43.72036" lon="6.97847">
        <ele>748</ele>
        <time>2012-04-17T16:15:25Z</time>
      </trkpt>
      <trkpt lat="43.72039" lon="6.97846">
        <ele>748</ele>
        <time>2012-04-17T16:15:30Z</time>
      </trkpt>
      <trkpt lat="43.7204" lon="6.97847">
        <ele>748</ele>
        <time>2012-04-17T16:15:32Z</time>
      </trkpt>
      <trkpt lat="43.72041" lon="6.97866">
        <ele>747</ele>
        <time>2012-04-17T16:15:37Z</time>
      </trkpt>
      <trkpt lat="43.72042" lon="6.97872">
        <ele>747</ele>
        <time>2012-04-17T16:15:38Z</time>
      </trkpt>
      <trkpt lat="43.72052" lon="6.97908">
        <ele>745</ele>
        <time>2012-04-17T16:15:42Z</time>
      </trkpt>
      <trkpt lat="43.72062" lon="6.97937">
        <ele>734</ele>
        <time>2012-04-17T16:15:47Z</time>
      </trkpt>
      <trkpt lat="43.72064" lon="6.97939">
        <ele>733</ele>
        <time>2012-04-17T16:15:50Z</time>
      </trkpt>
      <trkpt lat="43.72064" lon="6.97942">
        <ele>733</ele>
        <time>2012-04-17T16:15:54Z</time>
      </trkpt>
      <trkpt lat="43.72064" lon="6.97942">
        <ele>733</ele>
        <time>2012-04-17T16:16:11Z</time>
      </trkpt>
      <trkpt lat="43.72062" lon="6.97941">
        <ele>733</ele>
        <time>2012-04-17T16:17:07Z</time>
      </trkpt>
      <trkpt lat="43.72059" lon="6.97943">
        <ele>732</ele>
        <time>2012-04-17T16:17:13Z</time>
      </trkpt>
      <trkpt lat="43.72059" lon="6.97944">
        <ele>732</ele>
        <time>2012-04-17T16:17:21Z</time>
      </trkpt>
      <trkpt lat="43.72058" lon="6.97944">
        <ele>732</ele>
        <time>2012-04-17T16:17:30Z</time>
      </trkpt>
      <trkpt lat="43.72057" lon="6.97946">
        <ele>732</ele>
        <time>2012-04-17T16:17:47Z</time>
      </trkpt>
      <trkpt lat="43.72066" lon="6.97954">
        <ele>731</ele>
        <time>2012-04-17T16:17:53Z</time>
      </trkpt>
      <trkpt lat="43.72072" lon="6.97954">
        <ele>731</ele>
        <time>2012-04-17T16:17:56Z</time>
      </trkpt>
      <trkpt lat="43.72078" lon="6.97955">
        <ele>731</ele>
        <time>2012-04-17T16:18:01Z</time>
      </trkpt>
      <trkpt lat="43.72079" lon="6.97958">
        <ele>730</ele>
        <time>2012-04-17T16:18:04Z</time>
      </trkpt>
      <trkpt lat="43.72076" lon="6.97964">
        <ele>729</ele>
        <time>2012-04-17T16:18:07Z</time>
      </trkpt>
      <trkpt lat="43.72066" lon="6.97963">
        <ele>729</ele>
        <time>2012-04-17T16:18:12Z</time>
      </trkpt>
      <trkpt lat="43.72053" lon="6.97961">
        <ele>729</ele>
        <time>2012-04-17T16:18:16Z</time>
      </trkpt>
      <trkpt lat="43.72032" lon="6.97957">
        <ele>730</ele>
        <time>2012-04-17T16:18:22Z</time>
      </trkpt>
      <trkpt lat="43.72021" lon="6.97954">
        <ele>730</ele>
        <time>2012-04-17T16:18:26Z</time>
      </trkpt>
      <trkpt lat="43.72011" lon="6.97956">
        <ele>730</ele>
        <time>2012-04-17T16:18:31Z</time>
      </trkpt>
      <trkpt lat="43.71999" lon="6.97959">
        <ele>717</ele>
        <time>2012-04-17T16:18:36Z</time>
      </trkpt>
      <trkpt lat="43.71983" lon="6.97968">
        <ele>712</ele>
        <time>2012-04-17T16:18:42Z</time>
      </trkpt>
      <trkpt lat="43.71976" lon="6.97964">
        <ele>712</ele>
        <time>2012-04-17T16:18:46Z</time>
      </trkpt>
      <trkpt lat="43.71971" lon="6.97957">
        <ele>713</ele>
        <time>2012-04-17T16:18:50Z</time>
      </trkpt>
      <trkpt lat="43.71968" lon="6.97956">
        <ele>713</ele>
        <time>2012-04-17T16:18:55Z</time>
      </trkpt>
      <trkpt lat="43.71967" lon="6.97956">
        <ele>712</ele>
        <time>2012-04-17T16:19:00Z</time>
      </trkpt>
      <trkpt lat="43.71963" lon="6.97951">
        <ele>713</ele>
        <time>2012-04-17T16:19:04Z</time>
      </trkpt>
      <trkpt lat="43.7196" lon="6.97949">
        <ele>712</ele>
        <time>2012-04-17T16:19:10Z</time>
      </trkpt>
      <trkpt lat="43.7196" lon="6.97951">
        <ele>712</ele>
        <time>2012-04-17T16:19:17Z</time>
      </trkpt>
      <trkpt lat="43.7196" lon="6.97952">
        <ele>712</ele>
        <time>2012-04-17T16:19:19Z</time>
      </trkpt>
      <trkpt lat="43.71961" lon="6.97954">
        <ele>711</ele>
        <time>2012-04-17T16:19:21Z</time>
      </trkpt>
      <trkpt lat="43.71967" lon="6.97965">
        <ele>710</ele>
        <time>2012-04-17T16:19:26Z</time>
      </trkpt>
      <trkpt lat="43.71965" lon="6.97966">
        <ele>710</ele>
        <time>2012-04-17T16:19:31Z</time>
      </trkpt>
      <trkpt lat="43.71964" lon="6.97966">
        <ele>710</ele>
        <time>2012-04-17T16:19:37Z</time>
      </trkpt>
      <trkpt lat="43.71961" lon="6.97964">
        <ele>709</ele>
        <time>2012-04-17T16:19:41Z</time>
      </trkpt>
      <trkpt lat="43.71947" lon="6.97965">
        <ele>706</ele>
        <time>2012-04-17T16:19:48Z</time>
      </trkpt>
      <trkpt lat="43.71946" lon="6.97969">
        <ele>705</ele>
        <time>2012-04-17T16:19:51Z</time>
      </trkpt>
      <trkpt lat="43.71957" lon="6.97974">
        <ele>707</ele>
        <time>2012-04-17T16:19:57Z</time>
      </trkpt>
      <trkpt lat="43.71958" lon="6.97976">
        <ele>707</ele>
        <time>2012-04-17T16:20:01Z</time>
      </trkpt>
      <trkpt lat="43.71956" lon="6.97976">
        <ele>706</ele>
        <time>2012-04-17T16:20:07Z</time>
      </trkpt>
      <trkpt lat="43.71947" lon="6.97978">
        <ele>704</ele>
        <time>2012-04-17T16:20:12Z</time>
      </trkpt>
      <trkpt lat="43.71947" lon="6.97981">
        <ele>703</ele>
        <time>2012-04-17T16:20:16Z</time>
      </trkpt>
      <trkpt lat="43.71949" lon="6.97981">
        <ele>704</ele>
        <time>2012-04-17T16:20:20Z</time>
      </trkpt>
      <trkpt lat="43.7196" lon="6.97983">
        <ele>706</ele>
        <time>2012-04-17T16:20:25Z</time>
      </trkpt>
      <trkpt lat="43.71962" lon="6.97986">
        <ele>706</ele>
        <time>2012-04-17T16:20:27Z</time>
      </trkpt>
      <trkpt lat="43.71954" lon="6.97988">
        <ele>704</ele>
        <time>2012-04-17T16:20:33Z</time>
      </trkpt>
      <trkpt lat="43.71952" lon="6.97987">
        <ele>704</ele>
        <time>2012-04-17T16:20:34Z</time>
      </trkpt>
      <trkpt lat="43.71948" lon="6.97991">
        <ele>702</ele>
        <time>2012-04-17T16:20:40Z</time>
      </trkpt>
      <trkpt lat="43.71951" lon="6.97991">
        <ele>703</ele>
        <time>2012-04-17T16:20:46Z</time>
      </trkpt>
      <trkpt lat="43.71952" lon="6.97991">
        <ele>703</ele>
        <time>2012-04-17T16:20:47Z</time>
      </trkpt>
      <trkpt lat="43.71961" lon="6.97995">
        <ele>705</ele>
        <time>2012-04-17T16:20:52Z</time>
      </trkpt>
      <trkpt lat="43.71964" lon="6.97996">
        <ele>706</ele>
        <time>2012-04-17T16:20:53Z</time>
      </trkpt>
      <trkpt lat="43.71976" lon="6.98003">
        <ele>690</ele>
        <time>2012-04-17T16:20:58Z</time>
      </trkpt>
      <trkpt lat="43.71975" lon="6.98006">
        <ele>689</ele>
        <time>2012-04-17T16:21:02Z</time>
      </trkpt>
      <trkpt lat="43.71973" lon="6.98007">
        <ele>688</ele>
        <time>2012-04-17T16:21:07Z</time>
      </trkpt>
      <trkpt lat="43.71972" lon="6.98007">
        <ele>687</ele>
        <time>2012-04-17T16:21:09Z</time>
      </trkpt>
      <trkpt lat="43.71958" lon="6.98008">
        <ele>683</ele>
        <time>2012-04-17T16:21:15Z</time>
      </trkpt>
      <trkpt lat="43.7194" lon="6.98011">
        <ele>681</ele>
        <time>2012-04-17T16:21:19Z</time>
      </trkpt>
      <trkpt lat="43.7193" lon="6.98011">
        <ele>680</ele>
        <time>2012-04-17T16:21:21Z</time>
      </trkpt>
      <trkpt lat="43.71912" lon="6.98">
        <ele>678</ele>
        <time>2012-04-17T16:21:26Z</time>
      </trkpt>
      <trkpt lat="43.71907" lon="6.97997">
        <ele>674</ele>
        <time>2012-04-17T16:21:30Z</time>
      </trkpt>
      <trkpt lat="43.71905" lon="6.97997">
        <ele>674</ele>
        <time>2012-04-17T16:21:31Z</time>
      </trkpt>
      <trkpt lat="43.71905" lon="6.97994">
        <ele>673</ele>
        <time>2012-04-17T16:21:33Z</time>
      </trkpt>
      <trkpt lat="43.71908" lon="6.97992">
        <ele>674</ele>
        <time>2012-04-17T16:21:36Z</time>
      </trkpt>
      <trkpt lat="43.71905" lon="6.97988">
        <ele>672</ele>
        <time>2012-04-17T16:21:39Z</time>
      </trkpt>
      <trkpt lat="43.71902" lon="6.97984">
        <ele>670</ele>
        <time>2012-04-17T16:21:45Z</time>
      </trkpt>
      <trkpt lat="43.71901" lon="6.97985">
        <ele>670</ele>
        <time>2012-04-17T16:21:51Z</time>
      </trkpt>
      <trkpt lat="43.71899" lon="6.97989">
        <ele>669</ele>
        <time>2012-04-17T16:21:59Z</time>
      </trkpt>
      <trkpt lat="43.71899" lon="6.97989">
        <ele>669</ele>
        <time>2012-04-17T16:22:00Z</time>
      </trkpt>
      <trkpt lat="43.71894" lon="6.97996">
        <ele>668</ele>
        <time>2012-04-17T16:22:06Z</time>
      </trkpt>
      <trkpt lat="43.71894" lon="6.97993">
        <ele>668</ele>
        <time>2012-04-17T16:22:11Z</time>
      </trkpt>
      <trkpt lat="43.71896" lon="6.97986">
        <ele>668</ele>
        <time>2012-04-17T16:22:16Z</time>
      </trkpt>
      <trkpt lat="43.71895" lon="6.97986">
        <ele>668</ele>
        <time>2012-04-17T16:22:18Z</time>
      </trkpt>
      <trkpt lat="43.71888" lon="6.97992">
        <ele>665</ele>
        <time>2012-04-17T16:22:23Z</time>
      </trkpt>
      <trkpt lat="43.71887" lon="6.9799">
        <ele>665</ele>
        <time>2012-04-17T16:22:26Z</time>
      </trkpt>
      <trkpt lat="43.7189" lon="6.97983">
        <ele>665</ele>
        <time>2012-04-17T16:22:30Z</time>
      </trkpt>
      <trkpt lat="43.71889" lon="6.97978">
        <ele>665</ele>
        <time>2012-04-17T16:22:32Z</time>
      </trkpt>
      <trkpt lat="43.71889" lon="6.97967">
        <ele>665</ele>
        <time>2012-04-17T16:22:38Z</time>
      </trkpt>
      <trkpt lat="43.71889" lon="6.97966">
        <ele>665</ele>
        <time>2012-04-17T16:22:43Z</time>
      </trkpt>
      <trkpt lat="43.71889" lon="6.97963">
        <ele>665</ele>
        <time>2012-04-17T16:22:50Z</time>
      </trkpt>
      <trkpt lat="43.71886" lon="6.97966">
        <ele>664</ele>
        <time>2012-04-17T16:23:03Z</time>
      </trkpt>
      <trkpt lat="43.71885" lon="6.97969">
        <ele>664</ele>
        <time>2012-04-17T16:23:08Z</time>
      </trkpt>
      <trkpt lat="43.71883" lon="6.97969">
        <ele>663</ele>
        <time>2012-04-17T16:23:13Z</time>
      </trkpt>
      <trkpt lat="43.71883" lon="6.97968">
        <ele>663</ele>
        <time>2012-04-17T16:23:16Z</time>
      </trkpt>
      <trkpt lat="43.71882" lon="6.97963">
        <ele>663</ele>
        <time>2012-04-17T16:23:22Z</time>
      </trkpt>
      <trkpt lat="43.71881" lon="6.97964">
        <ele>663</ele>
        <time>2012-04-17T16:23:26Z</time>
      </trkpt>
      <trkpt lat="43.7188" lon="6.97975">
        <ele>662</ele>
        <time>2012-04-17T16:23:32Z</time>
      </trkpt>
      <trkpt lat="43.71878" lon="6.97969">
        <ele>661</ele>
        <time>2012-04-17T16:24:06Z</time>
      </trkpt>
      <trkpt lat="43.71876" lon="6.97949">
        <ele>661</ele>
        <time>2012-04-17T16:24:12Z</time>
      </trkpt>
      <trkpt lat="43.71875" lon="6.97953">
        <ele>661</ele>
        <time>2012-04-17T16:24:16Z</time>
      </trkpt>
      <trkpt lat="43.71874" lon="6.97958">
        <ele>660</ele>
        <time>2012-04-17T16:24:21Z</time>
      </trkpt>
      <trkpt lat="43.71872" lon="6.97962">
        <ele>659</ele>
        <time>2012-04-17T16:24:27Z</time>
      </trkpt>
      <trkpt lat="43.71871" lon="6.97954">
        <ele>659</ele>
        <time>2012-04-17T16:24:40Z</time>
      </trkpt>
      <trkpt lat="43.71871" lon="6.97957">
        <ele>659</ele>
        <time>2012-04-17T16:24:57Z</time>
      </trkpt>
      <trkpt lat="43.71873" lon="6.97943">
        <ele>660</ele>
        <time>2012-04-17T16:25:03Z</time>
      </trkpt>
      <trkpt lat="43.71867" lon="6.97925">
        <ele>656</ele>
        <time>2012-04-17T16:25:09Z</time>
      </trkpt>
      <trkpt lat="43.71859" lon="6.97907">
        <ele>651</ele>
        <time>2012-04-17T16:25:15Z</time>
      </trkpt>
      <trkpt lat="43.71858" lon="6.97907">
        <ele>650</ele>
        <time>2012-04-17T16:25:19Z</time>
      </trkpt>
      <trkpt lat="43.71858" lon="6.97909">
        <ele>650</ele>
        <time>2012-04-17T16:25:21Z</time>
      </trkpt>
      <trkpt lat="43.71858" lon="6.97924">
        <ele>650</ele>
        <time>2012-04-17T16:25:26Z</time>
      </trkpt>
      <trkpt lat="43.71854" lon="6.97943">
        <ele>652</ele>
        <time>2012-04-17T16:25:31Z</time>
      </trkpt>
      <trkpt lat="43.71851" lon="6.9796">
        <ele>652</ele>
        <time>2012-04-17T16:25:36Z</time>
      </trkpt>
      <trkpt lat="43.7185" lon="6.97958">
        <ele>652</ele>
        <time>2012-04-17T16:25:41Z</time>
      </trkpt>
      <trkpt lat="43.7185" lon="6.97953">
        <ele>652</ele>
        <time>2012-04-17T16:25:49Z</time>
      </trkpt>
      <trkpt lat="43.71849" lon="6.97953">
        <ele>651</ele>
        <time>2012-04-17T16:25:57Z</time>
      </trkpt>
      <trkpt lat="43.71849" lon="6.97953">
        <ele>651</ele>
        <time>2012-04-17T16:25:59Z</time>
      </trkpt>
      <trkpt lat="43.71845" lon="6.97959">
        <ele>651</ele>
        <time>2012-04-17T16:26:04Z</time>
      </trkpt>
      <trkpt lat="43.71837" lon="6.9797">
        <ele>649</ele>
        <time>2012-04-17T16:26:10Z</time>
      </trkpt>
      <trkpt lat="43.71831" lon="6.97975">
        <ele>612</ele>
        <time>2012-04-17T16:26:13Z</time>
      </trkpt>
      <trkpt lat="43.71826" lon="6.97978">
        <ele>612</ele>
        <time>2012-04-17T16:26:17Z</time>
      </trkpt>
      <trkpt lat="43.71833" lon="6.97963">
        <ele>608</ele>
        <time>2012-04-17T16:26:22Z</time>
      </trkpt>
      <trkpt lat="43.71837" lon="6.97949">
        <ele>648</ele>
        <time>2012-04-17T16:26:26Z</time>
      </trkpt>
      <trkpt lat="43.71837" lon="6.97948">
        <ele>648</ele>
        <time>2012-04-17T16:26:27Z</time>
      </trkpt>
      <trkpt lat="43.7183" lon="6.97957">
        <ele>607</ele>
        <time>2012-04-17T16:26:31Z</time>
      </trkpt>
      <trkpt lat="43.71822" lon="6.97962">
        <ele>606</ele>
        <time>2012-04-17T16:26:34Z</time>
      </trkpt>
      <trkpt lat="43.71808" lon="6.97975">
        <ele>603</ele>
        <time>2012-04-17T16:26:40Z</time>
      </trkpt>
      <trkpt lat="43.71795" lon="6.97983">
        <ele>598</ele>
        <time>2012-04-17T16:26:44Z</time>
      </trkpt>
      <trkpt lat="43.7179" lon="6.97985">
        <ele>595</ele>
        <time>2012-04-17T16:26:47Z</time>
      </trkpt>
      <trkpt lat="43.71796" lon="6.97971">
        <ele>597</ele>
        <time>2012-04-17T16:26:52Z</time>
      </trkpt>
      <trkpt lat="43.71803" lon="6.97959">
        <ele>599</ele>
        <time>2012-04-17T16:26:57Z</time>
      </trkpt>
      <trkpt lat="43.71803" lon="6.97958">
        <ele>599</ele>
        <time>2012-04-17T16:27:05Z</time>
      </trkpt>
      <trkpt lat="43.71801" lon="6.97958">
        <ele>598</ele>
        <time>2012-04-17T16:27:12Z</time>
      </trkpt>
      <trkpt lat="43.71801" lon="6.97958">
        <ele>598</ele>
        <time>2012-04-17T16:27:13Z</time>
      </trkpt>
      <trkpt lat="43.71792" lon="6.97965">
        <ele>595</ele>
        <time>2012-04-17T16:27:18Z</time>
      </trkpt>
      <trkpt lat="43.7179" lon="6.97964">
        <ele>594</ele>
        <time>2012-04-17T16:27:20Z</time>
      </trkpt>
      <trkpt lat="43.71795" lon="6.97956">
        <ele>595</ele>
        <time>2012-04-17T16:27:24Z</time>
      </trkpt>
      <trkpt lat="43.71799" lon="6.97951">
        <ele>597</ele>
        <time>2012-04-17T16:27:26Z</time>
      </trkpt>
      <trkpt lat="43.718" lon="6.97946">
        <ele>597</ele>
        <time>2012-04-17T16:27:28Z</time>
      </trkpt>
      <trkpt lat="43.7179" lon="6.97953">
        <ele>593</ele>
        <time>2012-04-17T16:27:33Z</time>
      </trkpt>
      <trkpt lat="43.71782" lon="6.97955">
        <ele>590</ele>
        <time>2012-04-17T16:27:38Z</time>
      </trkpt>
      <trkpt lat="43.71782" lon="6.97954">
        <ele>590</ele>
        <time>2012-04-17T16:27:44Z</time>
      </trkpt>
      <trkpt lat="43.71782" lon="6.97954">
        <ele>590</ele>
        <time>2012-04-17T16:28:05Z</time>
      </trkpt>
      <trkpt lat="43.71789" lon="6.97941">
        <ele>592</ele>
        <time>2012-04-17T16:28:10Z</time>
      </trkpt>
      <trkpt lat="43.71793" lon="6.97935">
        <ele>594</ele>
        <time>2012-04-17T16:28:13Z</time>
      </trkpt>
      <trkpt lat="43.71792" lon="6.97935">
        <ele>593</ele>
        <time>2012-04-17T16:28:15Z</time>
      </trkpt>
      <trkpt lat="43.71781" lon="6.97942">
        <ele>588</ele>
        <time>2012-04-17T16:28:21Z</time>
      </trkpt>
      <trkpt lat="43.71782" lon="6.97939">
        <ele>588</ele>
        <time>2012-04-17T16:28:26Z</time>
      </trkpt>
      <trkpt lat="43.71782" lon="6.97938">
        <ele>588</ele>
        <time>2012-04-17T16:28:30Z</time>
      </trkpt>
      <trkpt lat="43.71789" lon="6.9793">
        <ele>591</ele>
        <time>2012-04-17T16:28:34Z</time>
      </trkpt>
      <trkpt lat="43.71786" lon="6.97926">
        <ele>589</ele>
        <time>2012-04-17T16:28:38Z</time>
      </trkpt>
      <trkpt lat="43.71784" lon="6.97928">
        <ele>588</ele>
        <time>2012-04-17T16:28:39Z</time>
      </trkpt>
      <trkpt lat="43.71772" lon="6.97935">
        <ele>582</ele>
        <time>2012-04-17T16:28:44Z</time>
      </trkpt>
      <trkpt lat="43.71759" lon="6.9794">
        <ele>578</ele>
        <time>2012-04-17T16:28:48Z</time>
      </trkpt>
      <trkpt lat="43.71753" lon="6.9794">
        <ele>576</ele>
        <time>2012-04-17T16:28:50Z</time>
      </trkpt>
      <trkpt lat="43.71757" lon="6.97933">
        <ele>573</ele>
        <time>2012-04-17T16:28:54Z</time>
      </trkpt>
      <trkpt lat="43.71769" lon="6.97919">
        <ele>576</ele>
        <time>2012-04-17T16:28:58Z</time>
      </trkpt>
      <trkpt lat="43.71773" lon="6.97903">
        <ele>577</ele>
        <time>2012-04-17T16:29:02Z</time>
      </trkpt>
      <trkpt lat="43.71774" lon="6.97894">
        <ele>579</ele>
        <time>2012-04-17T16:29:04Z</time>
      </trkpt>
      <trkpt lat="43.7177" lon="6.97895">
        <ele>577</ele>
        <time>2012-04-17T16:29:08Z</time>
      </trkpt>
      <trkpt lat="43.71763" lon="6.97912">
        <ele>568</ele>
        <time>2012-04-17T16:29:12Z</time>
      </trkpt>
      <trkpt lat="43.71755" lon="6.97914">
        <ele>560</ele>
        <time>2012-04-17T16:29:17Z</time>
      </trkpt>
      <trkpt lat="43.71761" lon="6.97901">
        <ele>571</ele>
        <time>2012-04-17T16:29:21Z</time>
      </trkpt>
      <trkpt lat="43.7176" lon="6.97883">
        <ele>575</ele>
        <time>2012-04-17T16:29:25Z</time>
      </trkpt>
      <trkpt lat="43.71758" lon="6.97878">
        <ele>575</ele>
        <time>2012-04-17T16:29:28Z</time>
      </trkpt>
      <trkpt lat="43.71753" lon="6.97867">
        <ele>574</ele>
        <time>2012-04-17T16:29:33Z</time>
      </trkpt>
      <trkpt lat="43.71752" lon="6.97865">
        <ele>573</ele>
        <time>2012-04-17T16:29:34Z</time>
      </trkpt>
      <trkpt lat="43.71741" lon="6.97861">
        <ele>531</ele>
        <time>2012-04-17T16:29:39Z</time>
      </trkpt>
      <trkpt lat="43.71739" lon="6.97853">
        <ele>532</ele>
        <time>2012-04-17T16:29:43Z</time>
      </trkpt>
      <trkpt lat="43.71737" lon="6.97843">
        <ele>535</ele>
        <time>2012-04-17T16:29:46Z</time>
      </trkpt>
      <trkpt lat="43.71736" lon="6.97838">
        <ele>536</ele>
        <time>2012-04-17T16:29:47Z</time>
      </trkpt>
      <trkpt lat="43.71732" lon="6.97823">
        <ele>530</ele>
        <time>2012-04-17T16:29:51Z</time>
      </trkpt>
      <trkpt lat="43.71723" lon="6.97816">
        <ele>523</ele>
        <time>2012-04-17T16:29:56Z</time>
      </trkpt>
      <trkpt lat="43.7171" lon="6.97808">
        <ele>516</ele>
        <time>2012-04-17T16:30:02Z</time>
      </trkpt>
      <trkpt lat="43.71703" lon="6.97797">
        <ele>512</ele>
        <time>2012-04-17T16:30:07Z</time>
      </trkpt>
      <trkpt lat="43.71702" lon="6.97793">
        <ele>512</ele>
        <time>2012-04-17T16:30:11Z</time>
      </trkpt>
      <trkpt lat="43.71703" lon="6.97792">
        <ele>512</ele>
        <time>2012-04-17T16:30:54Z</time>
      </trkpt>
      <trkpt lat="43.71701" lon="6.97795">
        <ele>512</ele>
        <time>2012-04-17T16:31:00Z</time>
      </trkpt>
      <trkpt lat="43.71701" lon="6.97796">
        <ele>512</ele>
        <time>2012-04-17T16:31:16Z</time>
      </trkpt>
      <trkpt lat="43.71702" lon="6.97804">
        <ele>512</ele>
        <time>2012-04-17T16:31:20Z</time>
      </trkpt>
      <trkpt lat="43.71712" lon="6.97826">
        <ele>518</ele>
        <time>2012-04-17T16:31:26Z</time>
      </trkpt>
      <trkpt lat="43.71716" lon="6.97831">
        <ele>520</ele>
        <time>2012-04-17T16:31:28Z</time>
      </trkpt>
      <trkpt lat="43.71719" lon="6.97849">
        <ele>523</ele>
        <time>2012-04-17T16:31:32Z</time>
      </trkpt>
      <trkpt lat="43.71719" lon="6.97867">
        <ele>522</ele>
        <time>2012-04-17T16:31:35Z</time>
      </trkpt>
      <trkpt lat="43.71716" lon="6.97874">
        <ele>521</ele>
        <time>2012-04-17T16:31:38Z</time>
      </trkpt>
      <trkpt lat="43.71708" lon="6.97889">
        <ele>518</ele>
        <time>2012-04-17T16:31:44Z</time>
      </trkpt>
      <trkpt lat="43.71706" lon="6.9789">
        <ele>517</ele>
        <time>2012-04-17T16:31:47Z</time>
      </trkpt>
      <trkpt lat="43.71706" lon="6.97889">
        <ele>517</ele>
        <time>2012-04-17T16:31:52Z</time>
      </trkpt>
      <trkpt lat="43.71711" lon="6.97876">
        <ele>519</ele>
        <time>2012-04-17T16:31:57Z</time>
      </trkpt>
      <trkpt lat="43.71709" lon="6.97864">
        <ele>518</ele>
        <time>2012-04-17T16:32:00Z</time>
      </trkpt>
      <trkpt lat="43.71706" lon="6.97858">
        <ele>517</ele>
        <time>2012-04-17T16:32:02Z</time>
      </trkpt>
      <trkpt lat="43.71706" lon="6.97852">
        <ele>516</ele>
        <time>2012-04-17T16:32:07Z</time>
      </trkpt>
      <trkpt lat="43.71702" lon="6.97847">
        <ele>514</ele>
        <time>2012-04-17T16:32:16Z</time>
      </trkpt>
      <trkpt lat="43.717" lon="6.97846">
        <ele>513</ele>
        <time>2012-04-17T16:32:18Z</time>
      </trkpt>
      <trkpt lat="43.71693" lon="6.97834">
        <ele>508</ele>
        <time>2012-04-17T16:32:25Z</time>
      </trkpt>
      <trkpt lat="43.71693" lon="6.97834">
        <ele>508</ele>
        <time>2012-04-17T16:32:30Z</time>
      </trkpt>
      <trkpt lat="43.71695" lon="6.97835">
        <ele>509</ele>
        <time>2012-04-17T16:32:38Z</time>
      </trkpt>
      <trkpt lat="43.71699" lon="6.97836">
        <ele>512</ele>
        <time>2012-04-17T16:33:11Z</time>
      </trkpt>
      <trkpt lat="43.71699" lon="6.97837">
        <ele>512</ele>
        <time>2012-04-17T16:33:13Z</time>
      </trkpt>
      <trkpt lat="43.71702" lon="6.97849">
        <ele>514</ele>
        <time>2012-04-17T16:33:18Z</time>
      </trkpt>
      <trkpt lat="43.71704" lon="6.97853">
        <ele>515</ele>
        <time>2012-04-17T16:33:21Z</time>
      </trkpt>
      <trkpt lat="43.71702" lon="6.97852">
        <ele>514</ele>
        <time>2012-04-17T16:33:30Z</time>
      </trkpt>
      <trkpt lat="43.71693" lon="6.97848">
        <ele>509</ele>
        <time>2012-04-17T16:34:12Z</time>
      </trkpt>
      <trkpt lat="43.71691" lon="6.97839">
        <ele>507</ele>
        <time>2012-04-17T16:34:19Z</time>
      </trkpt>
      <trkpt lat="43.71692" lon="6.97831">
        <ele>505</ele>
        <time>2012-04-17T16:34:27Z</time>
      </trkpt>
      <trkpt lat="43.71691" lon="6.97829">
        <ele>504</ele>
        <time>2012-04-17T16:34:33Z</time>
      </trkpt>
      <trkpt lat="43.71688" lon="6.97827">
        <ele>503</ele>
        <time>2012-04-17T16:34:38Z</time>
      </trkpt>
      <trkpt lat="43.71682" lon="6.97821">
        <ele>500</ele>
        <time>2012-04-17T16:34:45Z</time>
      </trkpt>
      <trkpt lat="43.71682" lon="6.97813">
        <ele>502</ele>
        <time>2012-04-17T16:34:51Z</time>
      </trkpt>
      <trkpt lat="43.71683" lon="6.9781">
        <ele>503</ele>
        <time>2012-04-17T16:34:57Z</time>
      </trkpt>
      <trkpt lat="43.71691" lon="6.97775">
        <ele>506</ele>
        <time>2012-04-17T16:35:08Z</time>
      </trkpt>
      <trkpt lat="43.71691" lon="6.97774">
        <ele>505</ele>
        <time>2012-04-17T16:35:11Z</time>
      </trkpt>
      <trkpt lat="43.71686" lon="6.97775">
        <ele>504</ele>
        <time>2012-04-17T16:35:16Z</time>
      </trkpt>
      <trkpt lat="43.71686" lon="6.97778">
        <ele>504</ele>
        <time>2012-04-17T16:35:21Z</time>
      </trkpt>
      <trkpt lat="43.7169" lon="6.97754">
        <ele>501</ele>
        <time>2012-04-17T16:35:56Z</time>
      </trkpt>
      <trkpt lat="43.71707" lon="6.97725">
        <ele>502</ele>
        <time>2012-04-17T16:36:00Z</time>
      </trkpt>
      <trkpt lat="43.71706" lon="6.97727">
        <ele>502</ele>
        <time>2012-04-17T16:36:05Z</time>
      </trkpt>
      <trkpt lat="43.71716" lon="6.97698">
        <ele>503</ele>
        <time>2012-04-17T16:36:15Z</time>
      </trkpt>
      <trkpt lat="43.71717" lon="6.97688">
        <ele>502</ele>
        <time>2012-04-17T16:36:20Z</time>
      </trkpt>
      <trkpt lat="43.71715" lon="6.97687">
        <ele>502</ele>
        <time>2012-04-17T16:36:25Z</time>
      </trkpt>
      <trkpt lat="43.71718" lon="6.9766">
        <ele>493</ele>
        <time>2012-04-17T16:37:14Z</time>
      </trkpt>
      <trkpt lat="43.71714" lon="6.97681">
        <ele>501</ele>
        <time>2012-04-17T16:37:18Z</time>
      </trkpt>
      <trkpt lat="43.71715" lon="6.97685">
        <ele>502</ele>
        <time>2012-04-17T16:37:23Z</time>
      </trkpt>
      <trkpt lat="43.71707" lon="6.97727">
        <ele>503</ele>
        <time>2012-04-17T16:37:32Z</time>
      </trkpt>
      <trkpt lat="43.71705" lon="6.97736">
        <ele>503</ele>
        <time>2012-04-17T16:37:36Z</time>
      </trkpt>
      <trkpt lat="43.717" lon="6.97754">
        <ele>508</ele>
        <time>2012-04-17T16:37:51Z</time>
      </trkpt>
      <trkpt lat="43.71685" lon="6.97782">
        <ele>504</ele>
        <time>2012-04-17T16:38:07Z</time>
      </trkpt>
      <trkpt lat="43.71686" lon="6.97789">
        <ele>506</ele>
        <time>2012-04-17T16:38:12Z</time>
      </trkpt>
      <trkpt lat="43.71684" lon="6.97796">
        <ele>505</ele>
        <time>2012-04-17T16:38:22Z</time>
      </trkpt>
      <trkpt lat="43.71688" lon="6.97815">
        <ele>505</ele>
        <time>2012-04-17T16:38:26Z</time>
      </trkpt>
      <trkpt lat="43.71687" lon="6.97825">
        <ele>503</ele>
        <time>2012-04-17T16:38:31Z</time>
      </trkpt>
      <trkpt lat="43.71695" lon="6.97837">
        <ele>509</ele>
        <time>2012-04-17T16:38:39Z</time>
      </trkpt>
      <trkpt lat="43.71696" lon="6.9784">
        <ele>510</ele>
        <time>2012-04-17T16:38:45Z</time>
      </trkpt>
      <trkpt lat="43.71696" lon="6.9784">
        <ele>510</ele>
        <time>2012-04-17T16:38:49Z</time>
      </trkpt>
      <trkpt lat="43.717" lon="6.97854">
        <ele>513</ele>
        <time>2012-04-17T16:38:54Z</time>
      </trkpt>
      <trkpt lat="43.71702" lon="6.9787">
        <ele>515</ele>
        <time>2012-04-17T16:38:59Z</time>
      </trkpt>
      <trkpt lat="43.71695" lon="6.97882">
        <ele>512</ele>
        <time>2012-04-17T16:39:05Z</time>
      </trkpt>
      <trkpt lat="43.71692" lon="6.97889">
        <ele>511</ele>
        <time>2012-04-17T16:39:08Z</time>
      </trkpt>
      <trkpt lat="43.71689" lon="6.97896">
        <ele>508</ele>
        <time>2012-04-17T16:39:12Z</time>
      </trkpt>
      <trkpt lat="43.71681" lon="6.97909">
        <ele>501</ele>
        <time>2012-04-17T16:39:17Z</time>
      </trkpt>
      <trkpt lat="43.71679" lon="6.97911">
        <ele>499</ele>
        <time>2012-04-17T16:39:18Z</time>
      </trkpt>
      <trkpt lat="43.71674" lon="6.97927">
        <ele>500</ele>
        <time>2012-04-17T16:39:24Z</time>
      </trkpt>
      <trkpt lat="43.71672" lon="6.97932">
        <ele>502</ele>
        <time>2012-04-17T16:39:26Z</time>
      </trkpt>
      <trkpt lat="43.71668" lon="6.97943">
        <ele>507</ele>
        <time>2012-04-17T16:39:30Z</time>
      </trkpt>
      <trkpt lat="43.71666" lon="6.97945">
        <ele>470</ele>
        <time>2012-04-17T16:39:32Z</time>
      </trkpt>
      <trkpt lat="43.71666" lon="6.97931">
        <ele>474</ele>
        <time>2012-04-17T16:39:38Z</time>
      </trkpt>
      <trkpt lat="43.71666" lon="6.97918">
        <ele>482</ele>
        <time>2012-04-17T16:39:42Z</time>
      </trkpt>
      <trkpt lat="43.71666" lon="6.97908">
        <ele>475</ele>
        <time>2012-04-17T16:39:45Z</time>
      </trkpt>
      <trkpt lat="43.71665" lon="6.97896">
        <ele>468</ele>
        <time>2012-04-17T16:39:49Z</time>
      </trkpt>
      <trkpt lat="43.71664" lon="6.9789">
        <ele>466</ele>
        <time>2012-04-17T16:39:54Z</time>
      </trkpt>
      <trkpt lat="43.71662" lon="6.97891">
        <ele>466</ele>
        <time>2012-04-17T16:39:59Z</time>
      </trkpt>
      <trkpt lat="43.71662" lon="6.97892">
        <ele>466</ele>
        <time>2012-04-17T16:40:03Z</time>
      </trkpt>
      <trkpt lat="43.71659" lon="6.97898">
        <ele>467</ele>
        <time>2012-04-17T16:40:06Z</time>
      </trkpt>
      <trkpt lat="43.71655" lon="6.97905">
        <ele>469</ele>
        <time>2012-04-17T16:40:10Z</time>
      </trkpt>
      <trkpt lat="43.71654" lon="6.97903">
        <ele>468</ele>
        <time>2012-04-17T16:40:12Z</time>
      </trkpt>
      <trkpt lat="43.71652" lon="6.97897">
        <ele>465</ele>
        <time>2012-04-17T16:40:17Z</time>
      </trkpt>
      <trkpt lat="43.71651" lon="6.97899">
        <ele>465</ele>
        <time>2012-04-17T16:40:23Z</time>
      </trkpt>
      <trkpt lat="43.7165" lon="6.97904">
        <ele>466</ele>
        <time>2012-04-17T16:40:26Z</time>
      </trkpt>
      <trkpt lat="43.71646" lon="6.97916">
        <ele>466</ele>
        <time>2012-04-17T16:40:30Z</time>
      </trkpt>
      <trkpt lat="43.7164" lon="6.97933">
        <ele>464</ele>
        <time>2012-04-17T16:40:35Z</time>
      </trkpt>
      <trkpt lat="43.71636" lon="6.97949">
        <ele>462</ele>
        <time>2012-04-17T16:40:39Z</time>
      </trkpt>
      <trkpt lat="43.71633" lon="6.97959">
        <ele>461</ele>
        <time>2012-04-17T16:40:41Z</time>
      </trkpt>
      <trkpt lat="43.71625" lon="6.97988">
        <ele>460</ele>
        <time>2012-04-17T16:40:46Z</time>
      </trkpt>
      <trkpt lat="43.71624" lon="6.97992">
        <ele>459</ele>
        <time>2012-04-17T16:40:47Z</time>
      </trkpt>
      <trkpt lat="43.71619" lon="6.98006">
        <ele>459</ele>
        <time>2012-04-17T16:40:51Z</time>
      </trkpt>
      <trkpt lat="43.71618" lon="6.98015">
        <ele>458</ele>
        <time>2012-04-17T16:40:53Z</time>
      </trkpt>
      <trkpt lat="43.71616" lon="6.98019">
        <ele>457</ele>
        <time>2012-04-17T16:40:57Z</time>
      </trkpt>
      <trkpt lat="43.71616" lon="6.98016">
        <ele>457</ele>
        <time>2012-04-17T16:41:02Z</time>
      </trkpt>
      <trkpt lat="43.71618" lon="6.98015">
        <ele>458</ele>
        <time>2012-04-17T16:41:07Z</time>
      </trkpt>
      <trkpt lat="43.71617" lon="6.98001">
        <ele>457</ele>
        <time>2012-04-17T16:41:12Z</time>
      </trkpt>
      <trkpt lat="43.71615" lon="6.97998">
        <ele>454</ele>
        <time>2012-04-17T16:41:14Z</time>
      </trkpt>
      <trkpt lat="43.71609" lon="6.98018">
        <ele>454</ele>
        <time>2012-04-17T16:41:21Z</time>
      </trkpt>
      <trkpt lat="43.71605" lon="6.98031">
        <ele>454</ele>
        <time>2012-04-17T16:41:24Z</time>
      </trkpt>
      <trkpt lat="43.71605" lon="6.98043">
        <ele>455</ele>
        <time>2012-04-17T16:41:27Z</time>
      </trkpt>
      <trkpt lat="43.71603" lon="6.98045">
        <ele>454</ele>
        <time>2012-04-17T16:41:29Z</time>
      </trkpt>
      <trkpt lat="43.716" lon="6.98031">
        <ele>453</ele>
        <time>2012-04-17T16:41:33Z</time>
      </trkpt>
      <trkpt lat="43.71596" lon="6.98012">
        <ele>447</ele>
        <time>2012-04-17T16:41:38Z</time>
      </trkpt>
      <trkpt lat="43.71594" lon="6.98007">
        <ele>444</ele>
        <time>2012-04-17T16:41:41Z</time>
      </trkpt>
      <trkpt lat="43.71588" lon="6.98021">
        <ele>447</ele>
        <time>2012-04-17T16:41:46Z</time>
      </trkpt>
      <trkpt lat="43.71583" lon="6.98033">
        <ele>450</ele>
        <time>2012-04-17T16:41:49Z</time>
      </trkpt>
      <trkpt lat="43.71581" lon="6.98054">
        <ele>416</ele>
        <time>2012-04-17T16:41:55Z</time>
      </trkpt>
      <trkpt lat="43.71581" lon="6.98054">
        <ele>416</ele>
        <time>2012-04-17T16:41:59Z</time>
      </trkpt>
      <trkpt lat="43.7158" lon="6.98053">
        <ele>415</ele>
        <time>2012-04-17T16:42:07Z</time>
      </trkpt>
      <trkpt lat="43.7158" lon="6.98061">
        <ele>417</ele>
        <time>2012-04-17T16:42:47Z</time>
      </trkpt>
      <trkpt lat="43.7158" lon="6.9807">
        <ele>421</ele>
        <time>2012-04-17T16:42:50Z</time>
      </trkpt>
      <trkpt lat="43.71582" lon="6.98087">
        <ele>428</ele>
        <time>2012-04-17T16:42:55Z</time>
      </trkpt>
      <trkpt lat="43.71582" lon="6.9809">
        <ele>424</ele>
        <time>2012-04-17T16:42:56Z</time>
      </trkpt>
      <trkpt lat="43.7158" lon="6.98116">
        <ele>411</ele>
        <time>2012-04-17T16:43:02Z</time>
      </trkpt>
      <trkpt lat="43.71579" lon="6.98129">
        <ele>410</ele>
        <time>2012-04-17T16:43:05Z</time>
      </trkpt>
      <trkpt lat="43.71579" lon="6.98134">
        <ele>409</ele>
        <time>2012-04-17T16:43:06Z</time>
      </trkpt>
      <trkpt lat="43.71578" lon="6.98159">
        <ele>415</ele>
        <time>2012-04-17T16:43:11Z</time>
      </trkpt>
      <trkpt lat="43.71576" lon="6.9818">
        <ele>406</ele>
        <time>2012-04-17T16:43:17Z</time>
      </trkpt>
      <trkpt lat="43.71575" lon="6.98182">
        <ele>405</ele>
        <time>2012-04-17T16:43:18Z</time>
      </trkpt>
      <trkpt lat="43.71568" lon="6.98165">
        <ele>411</ele>
        <time>2012-04-17T16:43:24Z</time>
      </trkpt>
      <trkpt lat="43.71563" lon="6.98151">
        <ele>407</ele>
        <time>2012-04-17T16:43:28Z</time>
      </trkpt>
      <trkpt lat="43.7156" lon="6.98144">
        <ele>406</ele>
        <time>2012-04-17T16:43:31Z</time>
      </trkpt>
      <trkpt lat="43.71555" lon="6.98142">
        <ele>404</ele>
        <time>2012-04-17T16:43:36Z</time>
      </trkpt>
      <trkpt lat="43.71555" lon="6.98158">
        <ele>405</ele>
        <time>2012-04-17T16:43:41Z</time>
      </trkpt>
      <trkpt lat="43.71555" lon="6.9817">
        <ele>397</ele>
        <time>2012-04-17T16:43:44Z</time>
      </trkpt>
      <trkpt lat="43.71554" lon="6.98191">
        <ele>393</ele>
        <time>2012-04-17T16:43:50Z</time>
      </trkpt>
      <trkpt lat="43.71556" lon="6.98211">
        <ele>391</ele>
        <time>2012-04-17T16:43:55Z</time>
      </trkpt>
      <trkpt lat="43.71562" lon="6.98227">
        <ele>392</ele>
        <time>2012-04-17T16:43:59Z</time>
      </trkpt>
      <trkpt lat="43.71568" lon="6.98247">
        <ele>394</ele>
        <time>2012-04-17T16:44:04Z</time>
      </trkpt>
      <trkpt lat="43.71569" lon="6.98253">
        <ele>387</ele>
        <time>2012-04-17T16:44:06Z</time>
      </trkpt>
      <trkpt lat="43.71574" lon="6.98273">
        <ele>381</ele>
        <time>2012-04-17T16:44:12Z</time>
      </trkpt>
      <trkpt lat="43.71576" lon="6.98285">
        <ele>378</ele>
        <time>2012-04-17T16:44:16Z</time>
      </trkpt>
      <trkpt lat="43.71579" lon="6.98299">
        <ele>376</ele>
        <time>2012-04-17T16:44:22Z</time>
      </trkpt>
      <trkpt lat="43.71581" lon="6.98315">
        <ele>376</ele>
        <time>2012-04-17T16:44:26Z</time>
      </trkpt>
      <trkpt lat="43.71583" lon="6.98335">
        <ele>378</ele>
        <time>2012-04-17T16:44:31Z</time>
      </trkpt>
      <trkpt lat="43.71583" lon="6.98339">
        <ele>382</ele>
        <time>2012-04-17T16:44:32Z</time>
      </trkpt>
      <trkpt lat="43.71588" lon="6.98361">
        <ele>384</ele>
        <time>2012-04-17T16:44:38Z</time>
      </trkpt>
      <trkpt lat="43.71589" lon="6.98383">
        <ele>382</ele>
        <time>2012-04-17T16:44:43Z</time>
      </trkpt>
      <trkpt lat="43.71593" lon="6.98413">
        <ele>373</ele>
        <time>2012-04-17T16:44:50Z</time>
      </trkpt>
      <trkpt lat="43.71597" lon="6.98433">
        <ele>366</ele>
        <time>2012-04-17T16:44:54Z</time>
      </trkpt>
      <trkpt lat="43.71603" lon="6.98457">
        <ele>364</ele>
        <time>2012-04-17T16:44:59Z</time>
      </trkpt>
      <trkpt lat="43.716" lon="6.98468">
        <ele>362</ele>
        <time>2012-04-17T16:45:03Z</time>
      </trkpt>
      <trkpt lat="43.71587" lon="6.98483">
        <ele>357</ele>
        <time>2012-04-17T16:45:07Z</time>
      </trkpt>
      <trkpt lat="43.71571" lon="6.98498">
        <ele>343</ele>
        <time>2012-04-17T16:45:12Z</time>
      </trkpt>
      <trkpt lat="43.71565" lon="6.98501">
        <ele>333</ele>
        <time>2012-04-17T16:45:15Z</time>
      </trkpt>
      <trkpt lat="43.71551" lon="6.98486">
        <ele>338</ele>
        <time>2012-04-17T16:45:20Z</time>
      </trkpt>
      <trkpt lat="43.71549" lon="6.98484">
        <ele>338</ele>
        <time>2012-04-17T16:45:21Z</time>
      </trkpt>
      <trkpt lat="43.71545" lon="6.98496">
        <ele>336</ele>
        <time>2012-04-17T16:45:26Z</time>
      </trkpt>
      <trkpt lat="43.71542" lon="6.98509">
        <ele>325</ele>
        <time>2012-04-17T16:45:29Z</time>
      </trkpt>
      <trkpt lat="43.71537" lon="6.9851">
        <ele>323</ele>
        <time>2012-04-17T16:45:33Z</time>
      </trkpt>
      <trkpt lat="43.71534" lon="6.98506">
        <ele>323</ele>
        <time>2012-04-17T16:45:36Z</time>
      </trkpt>
      <trkpt lat="43.71531" lon="6.9852">
        <ele>321</ele>
        <time>2012-04-17T16:45:41Z</time>
      </trkpt>
      <trkpt lat="43.7153" lon="6.98534">
        <ele>320</ele>
        <time>2012-04-17T16:45:45Z</time>
      </trkpt>
      <trkpt lat="43.71533" lon="6.98556">
        <ele>318</ele>
        <time>2012-04-17T16:45:51Z</time>
      </trkpt>
      <trkpt lat="43.71535" lon="6.98578">
        <ele>316</ele>
        <time>2012-04-17T16:45:56Z</time>
      </trkpt>
      <trkpt lat="43.71541" lon="6.986">
        <ele>299</ele>
        <time>2012-04-17T16:46:01Z</time>
      </trkpt>
      <trkpt lat="43.71551" lon="6.98619">
        <ele>297</ele>
        <time>2012-04-17T16:46:06Z</time>
      </trkpt>
      <trkpt lat="43.7156" lon="6.9862">
        <ele>298</ele>
        <time>2012-04-17T16:46:10Z</time>
      </trkpt>
      <trkpt lat="43.71549" lon="6.98627">
        <ele>295</ele>
        <time>2012-04-17T16:46:15Z</time>
      </trkpt>
      <trkpt lat="43.71545" lon="6.9863">
        <ele>294</ele>
        <time>2012-04-17T16:46:18Z</time>
      </trkpt>
      <trkpt lat="43.71544" lon="6.98632">
        <ele>293</ele>
        <time>2012-04-17T16:46:28Z</time>
      </trkpt>
      <trkpt lat="43.71539" lon="6.98637">
        <ele>292</ele>
        <time>2012-04-17T16:46:40Z</time>
      </trkpt>
      <trkpt lat="43.71528" lon="6.98634">
        <ele>291</ele>
        <time>2012-04-17T16:46:44Z</time>
      </trkpt>
      <trkpt lat="43.71509" lon="6.98625">
        <ele>291</ele>
        <time>2012-04-17T16:46:50Z</time>
      </trkpt>
      <trkpt lat="43.71486" lon="6.98618">
        <ele>276</ele>
        <time>2012-04-17T16:46:57Z</time>
      </trkpt>
      <trkpt lat="43.71463" lon="6.98616">
        <ele>272</ele>
        <time>2012-04-17T16:47:03Z</time>
      </trkpt>
      <trkpt lat="43.71453" lon="6.98619">
        <ele>269</ele>
        <time>2012-04-17T16:47:07Z</time>
      </trkpt>
      <trkpt lat="43.71445" lon="6.98624">
        <ele>267</ele>
        <time>2012-04-17T16:47:11Z</time>
      </trkpt>
      <trkpt lat="43.71442" lon="6.9864">
        <ele>265</ele>
        <time>2012-04-17T16:47:16Z</time>
      </trkpt>
      <trkpt lat="43.71436" lon="6.98654">
        <ele>261</ele>
        <time>2012-04-17T16:47:21Z</time>
      </trkpt>
      <trkpt lat="43.71431" lon="6.98666">
        <ele>257</ele>
        <time>2012-04-17T16:47:25Z</time>
      </trkpt>
      <trkpt lat="43.71434" lon="6.9868">
        <ele>249</ele>
        <time>2012-04-17T16:47:28Z</time>
      </trkpt>
      <trkpt lat="43.71441" lon="6.98695">
        <ele>249</ele>
        <time>2012-04-17T16:47:31Z</time>
      </trkpt>
      <trkpt lat="43.71441" lon="6.98702">
        <ele>248</ele>
        <time>2012-04-17T16:47:36Z</time>
      </trkpt>
      <trkpt lat="43.71441" lon="6.98702">
        <ele>248</ele>
        <time>2012-04-17T16:47:59Z</time>
      </trkpt>
      <trkpt lat="43.71448" lon="6.98714">
        <ele>247</ele>
        <time>2012-04-17T16:48:04Z</time>
      </trkpt>
      <trkpt lat="43.71467" lon="6.98734">
        <ele>247</ele>
        <time>2012-04-17T16:48:11Z</time>
      </trkpt>
      <trkpt lat="43.71488" lon="6.98751">
        <ele>241</ele>
        <time>2012-04-17T16:48:18Z</time>
      </trkpt>
      <trkpt lat="43.71503" lon="6.98758">
        <ele>246</ele>
        <time>2012-04-17T16:48:24Z</time>
      </trkpt>
      <trkpt lat="43.71506" lon="6.98759">
        <ele>246</ele>
        <time>2012-04-17T16:48:25Z</time>
      </trkpt>
      <trkpt lat="43.71506" lon="6.98768">
        <ele>244</ele>
        <time>2012-04-17T16:48:29Z</time>
      </trkpt>
      <trkpt lat="43.71495" lon="6.98767">
        <ele>238</ele>
        <time>2012-04-17T16:48:32Z</time>
      </trkpt>
      <trkpt lat="43.71489" lon="6.98783">
        <ele>233</ele>
        <time>2012-04-17T16:48:39Z</time>
      </trkpt>
      <trkpt lat="43.71487" lon="6.98792">
        <ele>231</ele>
        <time>2012-04-17T16:48:41Z</time>
      </trkpt>
      <trkpt lat="43.71481" lon="6.98814">
        <ele>227</ele>
        <time>2012-04-17T16:48:45Z</time>
      </trkpt>
      <trkpt lat="43.71476" lon="6.98832">
        <ele>226</ele>
        <time>2012-04-17T16:48:48Z</time>
      </trkpt>
      <trkpt lat="43.71468" lon="6.98854">
        <ele>213</ele>
        <time>2012-04-17T16:48:52Z</time>
      </trkpt>
      <trkpt lat="43.71456" lon="6.98878">
        <ele>210</ele>
        <time>2012-04-17T16:48:57Z</time>
      </trkpt>
      <trkpt lat="43.7145" lon="6.98889">
        <ele>209</ele>
        <time>2012-04-17T16:49:01Z</time>
      </trkpt>
      <trkpt lat="43.71449" lon="6.98891">
        <ele>208</ele>
        <time>2012-04-17T16:49:02Z</time>
      </trkpt>
      <trkpt lat="43.7145" lon="6.98897">
        <ele>208</ele>
        <time>2012-04-17T16:49:07Z</time>
      </trkpt>
      <trkpt lat="43.71452" lon="6.98897">
        <ele>208</ele>
        <time>2012-04-17T16:49:09Z</time>
      </trkpt>
      <trkpt lat="43.71456" lon="6.98898">
        <ele>208</ele>
        <time>2012-04-17T16:49:15Z</time>
      </trkpt>
      <trkpt lat="43.71458" lon="6.989">
        <ele>208</ele>
        <time>2012-04-17T16:49:22Z</time>
      </trkpt>
      <trkpt lat="43.71455" lon="6.989">
        <ele>208</ele>
        <time>2012-04-17T16:49:27Z</time>
      </trkpt>
      <trkpt lat="43.71454" lon="6.98899">
        <ele>208</ele>
        <time>2012-04-17T16:49:33Z</time>
      </trkpt>
      <trkpt lat="43.71454" lon="6.989">
        <ele>208</ele>
        <time>2012-04-17T16:49:35Z</time>
      </trkpt>
      <trkpt lat="43.71456" lon="6.98902">
        <ele>208</ele>
        <time>2012-04-17T16:49:38Z</time>
      </trkpt>
      <trkpt lat="43.71457" lon="6.98899">
        <ele>208</ele>
        <time>2012-04-17T16:49:43Z</time>
      </trkpt>
      <trkpt lat="43.71457" lon="6.989">
        <ele>208</ele>
        <time>2012-04-17T16:49:44Z</time>
      </trkpt>
      <trkpt lat="43.71462" lon="6.98908">
        <ele>207</ele>
        <time>2012-04-17T16:49:49Z</time>
      </trkpt>
      <trkpt lat="43.71461" lon="6.98907">
        <ele>207</ele>
        <time>2012-04-17T16:49:52Z</time>
      </trkpt>
      <trkpt lat="43.71449" lon="6.989">
        <ele>208</ele>
        <time>2012-04-17T16:49:57Z</time>
      </trkpt>
      <trkpt lat="43.71437" lon="6.98896">
        <ele>207</ele>
        <time>2012-04-17T16:50:00Z</time>
      </trkpt>
      <trkpt lat="43.71415" lon="6.98865">
        <ele>203</ele>
        <time>2012-04-17T16:50:07Z</time>
      </trkpt>
      <trkpt lat="43.71413" lon="6.98853">
        <ele>205</ele>
        <time>2012-04-17T16:50:09Z</time>
      </trkpt>
      <trkpt lat="43.71409" lon="6.98805">
        <ele>213</ele>
        <time>2012-04-17T16:50:17Z</time>
      </trkpt>
      <trkpt lat="43.71401" lon="6.98783">
        <ele>215</ele>
        <time>2012-04-17T16:50:22Z</time>
      </trkpt>
      <trkpt lat="43.7139" lon="6.9876">
        <ele>216</ele>
        <time>2012-04-17T16:50:28Z</time>
      </trkpt>
      <trkpt lat="43.71377" lon="6.98739">
        <ele>224</ele>
        <time>2012-04-17T16:50:34Z</time>
      </trkpt>
      <trkpt lat="43.71359" lon="6.9871">
        <ele>224</ele>
        <time>2012-04-17T16:50:41Z</time>
      </trkpt>
      <trkpt lat="43.71351" lon="6.98696">
        <ele>224</ele>
        <time>2012-04-17T16:50:44Z</time>
      </trkpt>
      <trkpt lat="43.71347" lon="6.98686">
        <ele>224</ele>
        <time>2012-04-17T16:50:46Z</time>
      </trkpt>
      <trkpt lat="43.71338" lon="6.98635">
        <ele>233</ele>
        <time>2012-04-17T16:50:55Z</time>
      </trkpt>
      <trkpt lat="43.71328" lon="6.98591">
        <ele>229</ele>
        <time>2012-04-17T16:51:03Z</time>
      </trkpt>
      <trkpt lat="43.7132" lon="6.98551">
        <ele>238</ele>
        <time>2012-04-17T16:51:10Z</time>
      </trkpt>
      <trkpt lat="43.71317" lon="6.98541">
        <ele>239</ele>
        <time>2012-04-17T16:51:13Z</time>
      </trkpt>
      <trkpt lat="43.71309" lon="6.98529">
        <ele>241</ele>
        <time>2012-04-17T16:51:15Z</time>
      </trkpt>
      <trkpt lat="43.71289" lon="6.98518">
        <ele>241</ele>
        <time>2012-04-17T16:51:20Z</time>
      </trkpt>
      <trkpt lat="43.71272" lon="6.98528">
        <ele>241</ele>
        <time>2012-04-17T16:51:24Z</time>
      </trkpt>
      <trkpt lat="43.71258" lon="6.98559">
        <ele>238</ele>
        <time>2012-04-17T16:51:30Z</time>
      </trkpt>
      <trkpt lat="43.71258" lon="6.98572">
        <ele>236</ele>
        <time>2012-04-17T16:51:32Z</time>
      </trkpt>
      <trkpt lat="43.71258" lon="6.98591">
        <ele>232</ele>
        <time>2012-04-17T16:51:35Z</time>
      </trkpt>
      <trkpt lat="43.71252" lon="6.98623">
        <ele>229</ele>
        <time>2012-04-17T16:51:41Z</time>
      </trkpt>
      <trkpt lat="43.71248" lon="6.98639">
        <ele>236</ele>
        <time>2012-04-17T16:51:44Z</time>
      </trkpt>
      <trkpt lat="43.71237" lon="6.9868">
        <ele>231</ele>
        <time>2012-04-17T16:51:52Z</time>
      </trkpt>
      <trkpt lat="43.71221" lon="6.98712">
        <ele>232</ele>
        <time>2012-04-17T16:51:59Z</time>
      </trkpt>
      <trkpt lat="43.71199" lon="6.9874">
        <ele>234</ele>
        <time>2012-04-17T16:52:06Z</time>
      </trkpt>
      <trkpt lat="43.71185" lon="6.98767">
        <ele>231</ele>
        <time>2012-04-17T16:52:12Z</time>
      </trkpt>
      <trkpt lat="43.71174" lon="6.98804">
        <ele>229</ele>
        <time>2012-04-17T16:52:19Z</time>
      </trkpt>
      <trkpt lat="43.71162" lon="6.98836">
        <ele>235</ele>
        <time>2012-04-17T16:52:26Z</time>
      </trkpt>
      <trkpt lat="43.71142" lon="6.98855">
        <ele>236</ele>
        <time>2012-04-17T16:52:32Z</time>
      </trkpt>
      <trkpt lat="43.71117" lon="6.98868">
        <ele>238</ele>
        <time>2012-04-17T16:52:39Z</time>
      </trkpt>
      <trkpt lat="43.71084" lon="6.98885">
        <ele>238</ele>
        <time>2012-04-17T16:52:48Z</time>
      </trkpt>
      <trkpt lat="43.7105" lon="6.98901">
        <ele>247</ele>
        <time>2012-04-17T16:52:57Z</time>
      </trkpt>
      <trkpt lat="43.71011" lon="6.98911">
        <ele>248</ele>
        <time>2012-04-17T16:53:07Z</time>
      </trkpt>
      <trkpt lat="43.70977" lon="6.98924">
        <ele>245</ele>
        <time>2012-04-17T16:53:16Z</time>
      </trkpt>
      <trkpt lat="43.70945" lon="6.98939">
        <ele>246</ele>
        <time>2012-04-17T16:53:26Z</time>
      </trkpt>
      <trkpt lat="43.70915" lon="6.98953">
        <ele>253</ele>
        <time>2012-04-17T16:53:35Z</time>
      </trkpt>
      <trkpt lat="43.70886" lon="6.98957">
        <ele>253</ele>
        <time>2012-04-17T16:53:43Z</time>
      </trkpt>
      <trkpt lat="43.70858" lon="6.98953">
        <ele>255</ele>
        <time>2012-04-17T16:53:51Z</time>
      </trkpt>
      <trkpt lat="43.70833" lon="6.9896">
        <ele>260</ele>
        <time>2012-04-17T16:53:58Z</time>
      </trkpt>
      <trkpt lat="43.70812" lon="6.98976">
        <ele>259</ele>
        <time>2012-04-17T16:54:05Z</time>
      </trkpt>
      <trkpt lat="43.70792" lon="6.98996">
        <ele>259</ele>
        <time>2012-04-17T16:54:12Z</time>
      </trkpt>
      <trkpt lat="43.70766" lon="6.99017">
        <ele>250</ele>
        <time>2012-04-17T16:54:18Z</time>
      </trkpt>
      <trkpt lat="43.70752" lon="6.99035">
        <ele>248</ele>
        <time>2012-04-17T16:54:21Z</time>
      </trkpt>
      <trkpt lat="43.70718" lon="6.99088">
        <ele>245</ele>
        <time>2012-04-17T16:54:28Z</time>
      </trkpt>
      <trkpt lat="43.70695" lon="6.99122">
        <ele>245</ele>
        <time>2012-04-17T16:54:32Z</time>
      </trkpt>
      <trkpt lat="43.70679" lon="6.99164">
        <ele>244</ele>
        <time>2012-04-17T16:54:36Z</time>
      </trkpt>
      <trkpt lat="43.70677" lon="6.9919">
        <ele>237</ele>
        <time>2012-04-17T16:54:38Z</time>
      </trkpt>
      <trkpt lat="43.70678" lon="6.99242">
        <ele>236</ele>
        <time>2012-04-17T16:54:42Z</time>
      </trkpt>
      <trkpt lat="43.70665" lon="6.99283">
        <ele>237</ele>
        <time>2012-04-17T16:54:46Z</time>
      </trkpt>
      <trkpt lat="43.70646" lon="6.993">
        <ele>236</ele>
        <time>2012-04-17T16:54:49Z</time>
      </trkpt>
      <trkpt lat="43.70613" lon="6.99322">
        <ele>237</ele>
        <time>2012-04-17T16:54:54Z</time>
      </trkpt>
      <trkpt lat="43.70587" lon="6.99354">
        <ele>231</ele>
        <time>2012-04-17T16:54:59Z</time>
      </trkpt>
      <trkpt lat="43.7055" lon="6.9939">
        <ele>235</ele>
        <time>2012-04-17T16:55:06Z</time>
      </trkpt>
      <trkpt lat="43.70524" lon="6.99415">
        <ele>237</ele>
        <time>2012-04-17T16:55:12Z</time>
      </trkpt>
      <trkpt lat="43.7051" lon="6.9943">
        <ele>231</ele>
        <time>2012-04-17T16:55:16Z</time>
      </trkpt>
      <trkpt lat="43.7049" lon="6.99439">
        <ele>234</ele>
        <time>2012-04-17T16:55:21Z</time>
      </trkpt>
      <trkpt lat="43.70439" lon="6.99443">
        <ele>234</ele>
        <time>2012-04-17T16:55:32Z</time>
      </trkpt>
      <trkpt lat="43.70412" lon="6.99446">
        <ele>233</ele>
        <time>2012-04-17T16:55:38Z</time>
      </trkpt>
      <trkpt lat="43.70386" lon="6.99433">
        <ele>233</ele>
        <time>2012-04-17T16:55:44Z</time>
      </trkpt>
      <trkpt lat="43.70382" lon="6.99429">
        <ele>232</ele>
        <time>2012-04-17T16:55:45Z</time>
      </trkpt>
      <trkpt lat="43.70359" lon="6.99389">
        <ele>240</ele>
        <time>2012-04-17T16:55:51Z</time>
      </trkpt>
      <trkpt lat="43.70332" lon="6.99344">
        <ele>242</ele>
        <time>2012-04-17T16:55:57Z</time>
      </trkpt>
      <trkpt lat="43.70308" lon="6.99324">
        <ele>250</ele>
        <time>2012-04-17T16:56:01Z</time>
      </trkpt>
      <trkpt lat="43.70291" lon="6.9933">
        <ele>251</ele>
        <time>2012-04-17T16:56:04Z</time>
      </trkpt>
      <trkpt lat="43.70278" lon="6.99355">
        <ele>243</ele>
        <time>2012-04-17T16:56:08Z</time>
      </trkpt>
      <trkpt lat="43.70277" lon="6.99362">
        <ele>242</ele>
        <time>2012-04-17T16:56:09Z</time>
      </trkpt>
      <trkpt lat="43.70274" lon="6.99391">
        <ele>240</ele>
        <time>2012-04-17T16:56:13Z</time>
      </trkpt>
      <trkpt lat="43.70264" lon="6.99418">
        <ele>234</ele>
        <time>2012-04-17T16:56:17Z</time>
      </trkpt>
      <trkpt lat="43.70247" lon="6.99443">
        <ele>235</ele>
        <time>2012-04-17T16:56:22Z</time>
      </trkpt>
      <trkpt lat="43.70239" lon="6.9945">
        <ele>234</ele>
        <time>2012-04-17T16:56:24Z</time>
      </trkpt>
      <trkpt lat="43.70195" lon="6.99472">
        <ele>233</ele>
        <time>2012-04-17T16:56:32Z</time>
      </trkpt>
      <trkpt lat="43.70167" lon="6.99484">
        <ele>232</ele>
        <time>2012-04-17T16:56:37Z</time>
      </trkpt>
      <trkpt lat="43.70157" lon="6.99498">
        <ele>232</ele>
        <time>2012-04-17T16:56:40Z</time>
      </trkpt>
      <trkpt lat="43.70156" lon="6.99512">
        <ele>226</ele>
        <time>2012-04-17T16:56:42Z</time>
      </trkpt>
      <trkpt lat="43.70166" lon="6.99534">
        <ele>223</ele>
        <time>2012-04-17T16:56:45Z</time>
      </trkpt>
      <trkpt lat="43.70182" lon="6.99529">
        <ele>222</ele>
        <time>2012-04-17T16:56:47Z</time>
      </trkpt>
      <trkpt lat="43.70195" lon="6.99517">
        <ele>222</ele>
        <time>2012-04-17T16:56:49Z</time>
      </trkpt>
      <trkpt lat="43.70207" lon="6.99505">
        <ele>222</ele>
        <time>2012-04-17T16:56:52Z</time>
      </trkpt>
      <trkpt lat="43.70216" lon="6.995">
        <ele>222</ele>
        <time>2012-04-17T16:56:56Z</time>
      </trkpt>
    </trkseg>
  </trk>
</gpx>